﻿<?xml version="1.0" encoding="UTF-8" standalone="no" ?>
<gpx xmlns="http://www.topografix.com/GPX/1/1" creator="CompeGPS" version="1.1" xmlns:xsi="http://www.w3.org/2001/XMLSchema-instance" xsi:schemaLocation="http://www.topografix.com/GPX/1/1 http://www.topografix.com/GPX/1/1/gpx.xsd http://www.garmin.com/xmlschemas/GpxExtensions/v3 http://www.garmin.com/xmlschemas/GpxExtensionsv3.xsd http://www.garmin.com/xmlschemas/TrackPointExtension/v1 http://www.garmin.com/xmlschemas/TrackPointExtensionv1.xsd" xmlns:gpxtpx="http://www.garmin.com/xmlschemas/TrackPointExtension/v1">
  <metadata>
    <link href="http://www.compegps.com">
      <text>CompeGPS TEAM, SL</text>
    </link>
    <time>2019-08-04T18:24:11Z</time>
    <bounds maxlat="42.858111" maxlon="0.160334" minlat="42.838752" minlon="0.133592"/>
  </metadata>
  <trk>
    <name>estibere</name>
    <userMyTwoNav></userMyTwoNav>
    <serialNumber></serialNumber>
    <trkseg>
      <trkpt lat="42.840196" lon="0.144384">
        <ele>2167.2</ele>
        <time>2019-08-03T07:02:05Z</time>
      </trkpt>
      <trkpt lat="42.840149" lon="0.144400">
        <ele>2166.9</ele>
        <time>2019-08-03T07:04:06Z</time>
      </trkpt>
      <trkpt lat="42.840097" lon="0.144439">
        <ele>2167.9</ele>
        <time>2019-08-03T07:04:32Z</time>
      </trkpt>
      <trkpt lat="42.840065" lon="0.144557">
        <ele>2168.9</ele>
        <time>2019-08-03T07:04:52Z</time>
      </trkpt>
      <trkpt lat="42.840051" lon="0.144685">
        <ele>2169.6</ele>
        <time>2019-08-03T07:05:15Z</time>
      </trkpt>
      <trkpt lat="42.840025" lon="0.144866">
        <ele>2169.6</ele>
        <time>2019-08-03T07:05:48Z</time>
      </trkpt>
      <trkpt lat="42.839977" lon="0.144984">
        <ele>2170.1</ele>
        <time>2019-08-03T07:06:01Z</time>
      </trkpt>
      <trkpt lat="42.839955" lon="0.145116">
        <ele>2171.1</ele>
        <time>2019-08-03T07:06:16Z</time>
      </trkpt>
      <trkpt lat="42.839934" lon="0.145236">
        <ele>2173.4</ele>
        <time>2019-08-03T07:06:32Z</time>
      </trkpt>
      <trkpt lat="42.839872" lon="0.145340">
        <ele>2174.1</ele>
        <time>2019-08-03T07:06:48Z</time>
      </trkpt>
      <trkpt lat="42.839812" lon="0.145438">
        <ele>2173.5</ele>
        <time>2019-08-03T07:07:03Z</time>
      </trkpt>
      <trkpt lat="42.839779" lon="0.145527">
        <ele>2173.8</ele>
        <time>2019-08-03T07:07:16Z</time>
      </trkpt>
      <trkpt lat="42.839728" lon="0.145628">
        <ele>2174.6</ele>
        <time>2019-08-03T07:07:29Z</time>
      </trkpt>
      <trkpt lat="42.839647" lon="0.145712">
        <ele>2176.4</ele>
        <time>2019-08-03T07:07:43Z</time>
      </trkpt>
      <trkpt lat="42.839568" lon="0.145786">
        <ele>2177.3</ele>
        <time>2019-08-03T07:07:55Z</time>
      </trkpt>
      <trkpt lat="42.839527" lon="0.145871">
        <ele>2179.4</ele>
        <time>2019-08-03T07:08:13Z</time>
      </trkpt>
      <trkpt lat="42.839440" lon="0.145953">
        <ele>2179.9</ele>
        <time>2019-08-03T07:08:26Z</time>
      </trkpt>
      <trkpt lat="42.839393" lon="0.146067">
        <ele>2179.9</ele>
        <time>2019-08-03T07:08:38Z</time>
      </trkpt>
      <trkpt lat="42.839316" lon="0.146169">
        <ele>2180.1</ele>
        <time>2019-08-03T07:08:49Z</time>
      </trkpt>
      <trkpt lat="42.839250" lon="0.146269">
        <ele>2180.3</ele>
        <time>2019-08-03T07:09:16Z</time>
      </trkpt>
      <trkpt lat="42.839197" lon="0.146367">
        <ele>2180.2</ele>
        <time>2019-08-03T07:09:29Z</time>
      </trkpt>
      <trkpt lat="42.839162" lon="0.146441">
        <ele>2180.3</ele>
        <time>2019-08-03T07:09:57Z</time>
      </trkpt>
      <trkpt lat="42.839095" lon="0.146502">
        <ele>2180.0</ele>
        <time>2019-08-03T07:10:08Z</time>
      </trkpt>
      <trkpt lat="42.839036" lon="0.146613">
        <ele>2180.2</ele>
        <time>2019-08-03T07:10:19Z</time>
      </trkpt>
      <trkpt lat="42.839005" lon="0.146755">
        <ele>2180.3</ele>
        <time>2019-08-03T07:10:33Z</time>
      </trkpt>
      <trkpt lat="42.839001" lon="0.146804">
        <ele>2180.6</ele>
        <time>2019-08-03T07:10:50Z</time>
      </trkpt>
      <trkpt lat="42.839029" lon="0.146915">
        <ele>2180.4</ele>
        <time>2019-08-03T07:11:03Z</time>
      </trkpt>
      <trkpt lat="42.839045" lon="0.147048">
        <ele>2180.7</ele>
        <time>2019-08-03T07:11:22Z</time>
      </trkpt>
      <trkpt lat="42.839085" lon="0.147162">
        <ele>2181.5</ele>
        <time>2019-08-03T07:11:39Z</time>
      </trkpt>
      <trkpt lat="42.839047" lon="0.147281">
        <ele>2182.4</ele>
        <time>2019-08-03T07:11:51Z</time>
      </trkpt>
      <trkpt lat="42.839016" lon="0.147421">
        <ele>2182.6</ele>
        <time>2019-08-03T07:12:04Z</time>
      </trkpt>
      <trkpt lat="42.839010" lon="0.147552">
        <ele>2182.4</ele>
        <time>2019-08-03T07:12:15Z</time>
      </trkpt>
      <trkpt lat="42.838997" lon="0.147694">
        <ele>2182.6</ele>
        <time>2019-08-03T07:12:28Z</time>
      </trkpt>
      <trkpt lat="42.839078" lon="0.147764">
        <ele>2183.0</ele>
        <time>2019-08-03T07:12:42Z</time>
      </trkpt>
      <trkpt lat="42.839135" lon="0.147868">
        <ele>2184.4</ele>
        <time>2019-08-03T07:13:00Z</time>
      </trkpt>
      <trkpt lat="42.839156" lon="0.147984">
        <ele>2184.7</ele>
        <time>2019-08-03T07:13:11Z</time>
      </trkpt>
      <trkpt lat="42.839206" lon="0.148125">
        <ele>2185.4</ele>
        <time>2019-08-03T07:13:22Z</time>
      </trkpt>
      <trkpt lat="42.839260" lon="0.148249">
        <ele>2186.1</ele>
        <time>2019-08-03T07:13:34Z</time>
      </trkpt>
      <trkpt lat="42.839291" lon="0.148374">
        <ele>2187.5</ele>
        <time>2019-08-03T07:13:47Z</time>
      </trkpt>
      <trkpt lat="42.839283" lon="0.148521">
        <ele>2188.9</ele>
        <time>2019-08-03T07:14:00Z</time>
      </trkpt>
      <trkpt lat="42.839251" lon="0.148664">
        <ele>2188.6</ele>
        <time>2019-08-03T07:14:09Z</time>
      </trkpt>
      <trkpt lat="42.839212" lon="0.148782">
        <ele>2188.1</ele>
        <time>2019-08-03T07:14:18Z</time>
      </trkpt>
      <trkpt lat="42.839178" lon="0.148919">
        <ele>2188.1</ele>
        <time>2019-08-03T07:14:27Z</time>
      </trkpt>
      <trkpt lat="42.839129" lon="0.149036">
        <ele>2188.6</ele>
        <time>2019-08-03T07:14:36Z</time>
      </trkpt>
      <trkpt lat="42.839096" lon="0.149154">
        <ele>2189.4</ele>
        <time>2019-08-03T07:14:46Z</time>
      </trkpt>
      <trkpt lat="42.839093" lon="0.149082">
        <ele>2190.0</ele>
        <time>2019-08-03T07:15:12Z</time>
      </trkpt>
      <trkpt lat="42.839031" lon="0.149169">
        <ele>2189.1</ele>
        <time>2019-08-03T07:15:28Z</time>
      </trkpt>
      <trkpt lat="42.838979" lon="0.149290">
        <ele>2191.7</ele>
        <time>2019-08-03T07:15:43Z</time>
      </trkpt>
      <trkpt lat="42.839031" lon="0.149404">
        <ele>2193.0</ele>
        <time>2019-08-03T07:15:55Z</time>
      </trkpt>
      <trkpt lat="42.839091" lon="0.149499">
        <ele>2195.1</ele>
        <time>2019-08-03T07:16:07Z</time>
      </trkpt>
      <trkpt lat="42.839154" lon="0.149616">
        <ele>2196.5</ele>
        <time>2019-08-03T07:16:19Z</time>
      </trkpt>
      <trkpt lat="42.839166" lon="0.149738">
        <ele>2197.8</ele>
        <time>2019-08-03T07:16:30Z</time>
      </trkpt>
      <trkpt lat="42.839213" lon="0.149867">
        <ele>2198.4</ele>
        <time>2019-08-03T07:16:41Z</time>
      </trkpt>
      <trkpt lat="42.839231" lon="0.149986">
        <ele>2198.7</ele>
        <time>2019-08-03T07:16:52Z</time>
      </trkpt>
      <trkpt lat="42.839303" lon="0.150104">
        <ele>2198.8</ele>
        <time>2019-08-03T07:17:03Z</time>
      </trkpt>
      <trkpt lat="42.839320" lon="0.150231">
        <ele>2198.9</ele>
        <time>2019-08-03T07:17:12Z</time>
      </trkpt>
      <trkpt lat="42.839306" lon="0.150358">
        <ele>2199.6</ele>
        <time>2019-08-03T07:17:22Z</time>
      </trkpt>
      <trkpt lat="42.839294" lon="0.150482">
        <ele>2199.3</ele>
        <time>2019-08-03T07:17:31Z</time>
      </trkpt>
      <trkpt lat="42.839305" lon="0.150599">
        <ele>2198.8</ele>
        <time>2019-08-03T07:17:39Z</time>
      </trkpt>
      <trkpt lat="42.839303" lon="0.150718">
        <ele>2198.1</ele>
        <time>2019-08-03T07:17:47Z</time>
      </trkpt>
      <trkpt lat="42.839306" lon="0.150844">
        <ele>2197.8</ele>
        <time>2019-08-03T07:17:55Z</time>
      </trkpt>
      <trkpt lat="42.839295" lon="0.150987">
        <ele>2197.7</ele>
        <time>2019-08-03T07:18:03Z</time>
      </trkpt>
      <trkpt lat="42.839245" lon="0.151108">
        <ele>2197.9</ele>
        <time>2019-08-03T07:18:12Z</time>
      </trkpt>
      <trkpt lat="42.839217" lon="0.151221">
        <ele>2197.9</ele>
        <time>2019-08-03T07:18:21Z</time>
      </trkpt>
      <trkpt lat="42.839168" lon="0.151341">
        <ele>2197.7</ele>
        <time>2019-08-03T07:18:31Z</time>
      </trkpt>
      <trkpt lat="42.839131" lon="0.151473">
        <ele>2197.6</ele>
        <time>2019-08-03T07:18:41Z</time>
      </trkpt>
      <trkpt lat="42.839078" lon="0.151585">
        <ele>2197.7</ele>
        <time>2019-08-03T07:18:49Z</time>
      </trkpt>
      <trkpt lat="42.839055" lon="0.151703">
        <ele>2197.9</ele>
        <time>2019-08-03T07:18:58Z</time>
      </trkpt>
      <trkpt lat="42.839058" lon="0.151817">
        <ele>2197.9</ele>
        <time>2019-08-03T07:19:08Z</time>
      </trkpt>
      <trkpt lat="42.839041" lon="0.151938">
        <ele>2198.0</ele>
        <time>2019-08-03T07:19:18Z</time>
      </trkpt>
      <trkpt lat="42.839006" lon="0.152053">
        <ele>2198.1</ele>
        <time>2019-08-03T07:19:28Z</time>
      </trkpt>
      <trkpt lat="42.838973" lon="0.152140">
        <ele>2199.0</ele>
        <time>2019-08-03T07:22:00Z</time>
      </trkpt>
      <trkpt lat="42.838982" lon="0.152292">
        <ele>2198.7</ele>
        <time>2019-08-03T07:22:10Z</time>
      </trkpt>
      <trkpt lat="42.838966" lon="0.152404">
        <ele>2198.7</ele>
        <time>2019-08-03T07:22:20Z</time>
      </trkpt>
      <trkpt lat="42.838965" lon="0.152531">
        <ele>2198.8</ele>
        <time>2019-08-03T07:22:29Z</time>
      </trkpt>
      <trkpt lat="42.838944" lon="0.152655">
        <ele>2198.7</ele>
        <time>2019-08-03T07:22:38Z</time>
      </trkpt>
      <trkpt lat="42.838930" lon="0.152787">
        <ele>2199.4</ele>
        <time>2019-08-03T07:22:48Z</time>
      </trkpt>
      <trkpt lat="42.838914" lon="0.152918">
        <ele>2199.4</ele>
        <time>2019-08-03T07:22:57Z</time>
      </trkpt>
      <trkpt lat="42.838881" lon="0.153039">
        <ele>2199.3</ele>
        <time>2019-08-03T07:23:06Z</time>
      </trkpt>
      <trkpt lat="42.838873" lon="0.153150">
        <ele>2199.6</ele>
        <time>2019-08-03T07:23:15Z</time>
      </trkpt>
      <trkpt lat="42.838851" lon="0.153272">
        <ele>2199.4</ele>
        <time>2019-08-03T07:23:25Z</time>
      </trkpt>
      <trkpt lat="42.838834" lon="0.153414">
        <ele>2199.4</ele>
        <time>2019-08-03T07:23:36Z</time>
      </trkpt>
      <trkpt lat="42.838827" lon="0.153544">
        <ele>2199.6</ele>
        <time>2019-08-03T07:23:46Z</time>
      </trkpt>
      <trkpt lat="42.838853" lon="0.153685">
        <ele>2199.7</ele>
        <time>2019-08-03T07:23:57Z</time>
      </trkpt>
      <trkpt lat="42.838867" lon="0.153818">
        <ele>2199.9</ele>
        <time>2019-08-03T07:24:07Z</time>
      </trkpt>
      <trkpt lat="42.838876" lon="0.153941">
        <ele>2199.8</ele>
        <time>2019-08-03T07:24:17Z</time>
      </trkpt>
      <trkpt lat="42.838900" lon="0.154076">
        <ele>2199.6</ele>
        <time>2019-08-03T07:24:26Z</time>
      </trkpt>
      <trkpt lat="42.838910" lon="0.154194">
        <ele>2199.1</ele>
        <time>2019-08-03T07:24:35Z</time>
      </trkpt>
      <trkpt lat="42.838936" lon="0.154314">
        <ele>2199.0</ele>
        <time>2019-08-03T07:24:45Z</time>
      </trkpt>
      <trkpt lat="42.838900" lon="0.154442">
        <ele>2198.8</ele>
        <time>2019-08-03T07:24:55Z</time>
      </trkpt>
      <trkpt lat="42.838891" lon="0.154575">
        <ele>2198.7</ele>
        <time>2019-08-03T07:25:04Z</time>
      </trkpt>
      <trkpt lat="42.838859" lon="0.154702">
        <ele>2198.8</ele>
        <time>2019-08-03T07:25:14Z</time>
      </trkpt>
      <trkpt lat="42.838825" lon="0.154804">
        <ele>2198.8</ele>
        <time>2019-08-03T07:25:23Z</time>
      </trkpt>
      <trkpt lat="42.838802" lon="0.154908">
        <ele>2198.8</ele>
        <time>2019-08-03T07:25:31Z</time>
      </trkpt>
      <trkpt lat="42.838786" lon="0.155021">
        <ele>2198.9</ele>
        <time>2019-08-03T07:25:44Z</time>
      </trkpt>
      <trkpt lat="42.838780" lon="0.155148">
        <ele>2198.7</ele>
        <time>2019-08-03T07:25:55Z</time>
      </trkpt>
      <trkpt lat="42.838760" lon="0.155280">
        <ele>2198.8</ele>
        <time>2019-08-03T07:26:05Z</time>
      </trkpt>
      <trkpt lat="42.838752" lon="0.155386">
        <ele>2199.0</ele>
        <time>2019-08-03T07:26:13Z</time>
      </trkpt>
      <trkpt lat="42.838755" lon="0.155511">
        <ele>2199.4</ele>
        <time>2019-08-03T07:26:23Z</time>
      </trkpt>
      <trkpt lat="42.838781" lon="0.155619">
        <ele>2199.4</ele>
        <time>2019-08-03T07:27:02Z</time>
      </trkpt>
      <trkpt lat="42.838784" lon="0.155697">
        <ele>2199.8</ele>
        <time>2019-08-03T07:32:20Z</time>
      </trkpt>
      <trkpt lat="42.838806" lon="0.155822">
        <ele>2199.8</ele>
        <time>2019-08-03T07:32:31Z</time>
      </trkpt>
      <trkpt lat="42.838813" lon="0.155950">
        <ele>2199.9</ele>
        <time>2019-08-03T07:32:42Z</time>
      </trkpt>
      <trkpt lat="42.838842" lon="0.156082">
        <ele>2200.1</ele>
        <time>2019-08-03T07:32:52Z</time>
      </trkpt>
      <trkpt lat="42.838897" lon="0.156167">
        <ele>2200.3</ele>
        <time>2019-08-03T07:33:04Z</time>
      </trkpt>
      <trkpt lat="42.838933" lon="0.156277">
        <ele>2202.0</ele>
        <time>2019-08-03T07:34:22Z</time>
      </trkpt>
      <trkpt lat="42.838896" lon="0.156403">
        <ele>2202.8</ele>
        <time>2019-08-03T07:34:32Z</time>
      </trkpt>
      <trkpt lat="42.838861" lon="0.156527">
        <ele>2202.0</ele>
        <time>2019-08-03T07:34:42Z</time>
      </trkpt>
      <trkpt lat="42.838839" lon="0.156648">
        <ele>2201.3</ele>
        <time>2019-08-03T07:34:51Z</time>
      </trkpt>
      <trkpt lat="42.838818" lon="0.156775">
        <ele>2200.8</ele>
        <time>2019-08-03T07:35:00Z</time>
      </trkpt>
      <trkpt lat="42.838806" lon="0.156908">
        <ele>2200.4</ele>
        <time>2019-08-03T07:35:10Z</time>
      </trkpt>
      <trkpt lat="42.838824" lon="0.157038">
        <ele>2200.1</ele>
        <time>2019-08-03T07:35:19Z</time>
      </trkpt>
      <trkpt lat="42.838846" lon="0.157163">
        <ele>2200.4</ele>
        <time>2019-08-03T07:35:29Z</time>
      </trkpt>
      <trkpt lat="42.838929" lon="0.157224">
        <ele>2200.7</ele>
        <time>2019-08-03T07:35:38Z</time>
      </trkpt>
      <trkpt lat="42.839005" lon="0.157309">
        <ele>2200.6</ele>
        <time>2019-08-03T07:35:47Z</time>
      </trkpt>
      <trkpt lat="42.839074" lon="0.157393">
        <ele>2200.8</ele>
        <time>2019-08-03T07:35:56Z</time>
      </trkpt>
      <trkpt lat="42.839139" lon="0.157476">
        <ele>2200.3</ele>
        <time>2019-08-03T07:36:07Z</time>
      </trkpt>
      <trkpt lat="42.839235" lon="0.157501">
        <ele>2200.4</ele>
        <time>2019-08-03T07:36:21Z</time>
      </trkpt>
      <trkpt lat="42.839342" lon="0.157551">
        <ele>2201.0</ele>
        <time>2019-08-03T07:36:45Z</time>
      </trkpt>
      <trkpt lat="42.839453" lon="0.157609">
        <ele>2200.9</ele>
        <time>2019-08-03T07:36:57Z</time>
      </trkpt>
      <trkpt lat="42.839540" lon="0.157571">
        <ele>2200.3</ele>
        <time>2019-08-03T07:37:09Z</time>
      </trkpt>
      <trkpt lat="42.839617" lon="0.157494">
        <ele>2200.6</ele>
        <time>2019-08-03T07:37:23Z</time>
      </trkpt>
      <trkpt lat="42.839699" lon="0.157570">
        <ele>2203.2</ele>
        <time>2019-08-03T07:37:42Z</time>
      </trkpt>
      <trkpt lat="42.839781" lon="0.157633">
        <ele>2204.9</ele>
        <time>2019-08-03T07:37:54Z</time>
      </trkpt>
      <trkpt lat="42.839866" lon="0.157705">
        <ele>2205.8</ele>
        <time>2019-08-03T07:38:05Z</time>
      </trkpt>
      <trkpt lat="42.839958" lon="0.157716">
        <ele>2206.0</ele>
        <time>2019-08-03T07:38:15Z</time>
      </trkpt>
      <trkpt lat="42.840056" lon="0.157752">
        <ele>2207.2</ele>
        <time>2019-08-03T07:38:28Z</time>
      </trkpt>
      <trkpt lat="42.840150" lon="0.157806">
        <ele>2207.9</ele>
        <time>2019-08-03T07:38:38Z</time>
      </trkpt>
      <trkpt lat="42.840231" lon="0.157868">
        <ele>2209.0</ele>
        <time>2019-08-03T07:38:56Z</time>
      </trkpt>
      <trkpt lat="42.840319" lon="0.157950">
        <ele>2211.0</ele>
        <time>2019-08-03T07:39:12Z</time>
      </trkpt>
      <trkpt lat="42.840419" lon="0.158037">
        <ele>2213.4</ele>
        <time>2019-08-03T07:39:27Z</time>
      </trkpt>
      <trkpt lat="42.840511" lon="0.158076">
        <ele>2214.9</ele>
        <time>2019-08-03T07:39:39Z</time>
      </trkpt>
      <trkpt lat="42.840585" lon="0.158149">
        <ele>2216.4</ele>
        <time>2019-08-03T07:39:53Z</time>
      </trkpt>
      <trkpt lat="42.840675" lon="0.158194">
        <ele>2218.0</ele>
        <time>2019-08-03T07:40:09Z</time>
      </trkpt>
      <trkpt lat="42.840744" lon="0.158236">
        <ele>2219.6</ele>
        <time>2019-08-03T07:40:22Z</time>
      </trkpt>
      <trkpt lat="42.840829" lon="0.158241">
        <ele>2221.8</ele>
        <time>2019-08-03T07:40:36Z</time>
      </trkpt>
      <trkpt lat="42.840911" lon="0.158229">
        <ele>2224.7</ele>
        <time>2019-08-03T07:40:54Z</time>
      </trkpt>
      <trkpt lat="42.841003" lon="0.158174">
        <ele>2227.6</ele>
        <time>2019-08-03T07:41:11Z</time>
      </trkpt>
      <trkpt lat="42.841094" lon="0.158109">
        <ele>2229.7</ele>
        <time>2019-08-03T07:41:26Z</time>
      </trkpt>
      <trkpt lat="42.841197" lon="0.158078">
        <ele>2232.1</ele>
        <time>2019-08-03T07:41:41Z</time>
      </trkpt>
      <trkpt lat="42.841233" lon="0.158213">
        <ele>2234.7</ele>
        <time>2019-08-03T07:41:58Z</time>
      </trkpt>
      <trkpt lat="42.841251" lon="0.158350">
        <ele>2236.4</ele>
        <time>2019-08-03T07:42:13Z</time>
      </trkpt>
      <trkpt lat="42.841254" lon="0.158491">
        <ele>2237.7</ele>
        <time>2019-08-03T07:42:26Z</time>
      </trkpt>
      <trkpt lat="42.841351" lon="0.158516">
        <ele>2240.3</ele>
        <time>2019-08-03T07:42:44Z</time>
      </trkpt>
      <trkpt lat="42.841430" lon="0.158490">
        <ele>2243.4</ele>
        <time>2019-08-03T07:43:02Z</time>
      </trkpt>
      <trkpt lat="42.841513" lon="0.158570">
        <ele>2246.2</ele>
        <time>2019-08-03T07:43:22Z</time>
      </trkpt>
      <trkpt lat="42.841528" lon="0.158701">
        <ele>2249.3</ele>
        <time>2019-08-03T07:43:41Z</time>
      </trkpt>
      <trkpt lat="42.841530" lon="0.158833">
        <ele>2251.9</ele>
        <time>2019-08-03T07:44:00Z</time>
      </trkpt>
      <trkpt lat="42.841545" lon="0.158972">
        <ele>2253.9</ele>
        <time>2019-08-03T07:44:16Z</time>
      </trkpt>
      <trkpt lat="42.841594" lon="0.159009">
        <ele>2256.2</ele>
        <time>2019-08-03T07:44:33Z</time>
      </trkpt>
      <trkpt lat="42.841659" lon="0.158919">
        <ele>2258.3</ele>
        <time>2019-08-03T07:44:49Z</time>
      </trkpt>
      <trkpt lat="42.841729" lon="0.158872">
        <ele>2259.8</ele>
        <time>2019-08-03T07:45:01Z</time>
      </trkpt>
      <trkpt lat="42.841742" lon="0.159011">
        <ele>2261.2</ele>
        <time>2019-08-03T07:45:14Z</time>
      </trkpt>
      <trkpt lat="42.841793" lon="0.158933">
        <ele>2263.2</ele>
        <time>2019-08-03T07:45:28Z</time>
      </trkpt>
      <trkpt lat="42.841868" lon="0.159002">
        <ele>2265.2</ele>
        <time>2019-08-03T07:45:45Z</time>
      </trkpt>
      <trkpt lat="42.841884" lon="0.158892">
        <ele>2267.7</ele>
        <time>2019-08-03T07:46:00Z</time>
      </trkpt>
      <trkpt lat="42.841950" lon="0.158990">
        <ele>2269.6</ele>
        <time>2019-08-03T07:46:16Z</time>
      </trkpt>
      <trkpt lat="42.842033" lon="0.158969">
        <ele>2271.7</ele>
        <time>2019-08-03T07:46:34Z</time>
      </trkpt>
      <trkpt lat="42.842110" lon="0.158966">
        <ele>2274.4</ele>
        <time>2019-08-03T07:46:54Z</time>
      </trkpt>
      <trkpt lat="42.842196" lon="0.158981">
        <ele>2277.0</ele>
        <time>2019-08-03T07:47:12Z</time>
      </trkpt>
      <trkpt lat="42.842195" lon="0.158826">
        <ele>2279.7</ele>
        <time>2019-08-03T07:47:31Z</time>
      </trkpt>
      <trkpt lat="42.842286" lon="0.158781">
        <ele>2282.5</ele>
        <time>2019-08-03T07:47:48Z</time>
      </trkpt>
      <trkpt lat="42.842375" lon="0.158886">
        <ele>2285.7</ele>
        <time>2019-08-03T07:48:09Z</time>
      </trkpt>
      <trkpt lat="42.842433" lon="0.158914">
        <ele>2288.5</ele>
        <time>2019-08-03T07:48:30Z</time>
      </trkpt>
      <trkpt lat="42.842462" lon="0.158840">
        <ele>2291.8</ele>
        <time>2019-08-03T07:48:51Z</time>
      </trkpt>
      <trkpt lat="42.842533" lon="0.158825">
        <ele>2294.4</ele>
        <time>2019-08-03T07:49:10Z</time>
      </trkpt>
      <trkpt lat="42.842572" lon="0.158872">
        <ele>2297.1</ele>
        <time>2019-08-03T07:49:29Z</time>
      </trkpt>
      <trkpt lat="42.842616" lon="0.158905">
        <ele>2300.4</ele>
        <time>2019-08-03T07:49:52Z</time>
      </trkpt>
      <trkpt lat="42.842668" lon="0.158995">
        <ele>2303.2</ele>
        <time>2019-08-03T07:50:11Z</time>
      </trkpt>
      <trkpt lat="42.842679" lon="0.159085">
        <ele>2305.3</ele>
        <time>2019-08-03T07:50:29Z</time>
      </trkpt>
      <trkpt lat="42.842677" lon="0.159221">
        <ele>2307.8</ele>
        <time>2019-08-03T07:50:51Z</time>
      </trkpt>
      <trkpt lat="42.842653" lon="0.159368">
        <ele>2309.6</ele>
        <time>2019-08-03T07:51:06Z</time>
      </trkpt>
      <trkpt lat="42.842709" lon="0.159347">
        <ele>2311.4</ele>
        <time>2019-08-03T07:51:23Z</time>
      </trkpt>
      <trkpt lat="42.842766" lon="0.159261">
        <ele>2313.6</ele>
        <time>2019-08-03T07:51:37Z</time>
      </trkpt>
      <trkpt lat="42.842756" lon="0.159128">
        <ele>2315.6</ele>
        <time>2019-08-03T07:51:53Z</time>
      </trkpt>
      <trkpt lat="42.842806" lon="0.159020">
        <ele>2317.9</ele>
        <time>2019-08-03T07:52:09Z</time>
      </trkpt>
      <trkpt lat="42.842893" lon="0.159054">
        <ele>2321.2</ele>
        <time>2019-08-03T07:52:29Z</time>
      </trkpt>
      <trkpt lat="42.842959" lon="0.159008">
        <ele>2325.9</ele>
        <time>2019-08-03T07:52:57Z</time>
      </trkpt>
      <trkpt lat="42.843019" lon="0.158998">
        <ele>2328.6</ele>
        <time>2019-08-03T07:53:14Z</time>
      </trkpt>
      <trkpt lat="42.843073" lon="0.158978">
        <ele>2332.3</ele>
        <time>2019-08-03T07:53:37Z</time>
      </trkpt>
      <trkpt lat="42.843093" lon="0.159127">
        <ele>2335.2</ele>
        <time>2019-08-03T07:53:54Z</time>
      </trkpt>
      <trkpt lat="42.843086" lon="0.159266">
        <ele>2337.4</ele>
        <time>2019-08-03T07:54:13Z</time>
      </trkpt>
      <trkpt lat="42.843087" lon="0.159417">
        <ele>2338.0</ele>
        <time>2019-08-03T07:54:26Z</time>
      </trkpt>
      <trkpt lat="42.843097" lon="0.159548">
        <ele>2339.0</ele>
        <time>2019-08-03T07:54:41Z</time>
      </trkpt>
      <trkpt lat="42.843091" lon="0.159654">
        <ele>2341.9</ele>
        <time>2019-08-03T07:54:59Z</time>
      </trkpt>
      <trkpt lat="42.843113" lon="0.159761">
        <ele>2345.9</ele>
        <time>2019-08-03T07:55:22Z</time>
      </trkpt>
      <trkpt lat="42.843199" lon="0.159732">
        <ele>2348.8</ele>
        <time>2019-08-03T07:55:41Z</time>
      </trkpt>
      <trkpt lat="42.843251" lon="0.159819">
        <ele>2351.5</ele>
        <time>2019-08-03T07:55:59Z</time>
      </trkpt>
      <trkpt lat="42.843336" lon="0.159856">
        <ele>2353.8</ele>
        <time>2019-08-03T07:56:15Z</time>
      </trkpt>
      <trkpt lat="42.843396" lon="0.159976">
        <ele>2355.8</ele>
        <time>2019-08-03T07:56:30Z</time>
      </trkpt>
      <trkpt lat="42.843470" lon="0.160022">
        <ele>2357.8</ele>
        <time>2019-08-03T07:57:08Z</time>
      </trkpt>
      <trkpt lat="42.843548" lon="0.160046">
        <ele>2359.6</ele>
        <time>2019-08-03T07:57:30Z</time>
      </trkpt>
      <trkpt lat="42.843651" lon="0.160039">
        <ele>2361.6</ele>
        <time>2019-08-03T07:57:45Z</time>
      </trkpt>
      <trkpt lat="42.843712" lon="0.160121">
        <ele>2364.1</ele>
        <time>2019-08-03T07:58:04Z</time>
      </trkpt>
      <trkpt lat="42.843797" lon="0.160189">
        <ele>2366.1</ele>
        <time>2019-08-03T07:58:22Z</time>
      </trkpt>
      <trkpt lat="42.843855" lon="0.160137">
        <ele>2367.7</ele>
        <time>2019-08-03T07:58:35Z</time>
      </trkpt>
      <trkpt lat="42.843913" lon="0.160189">
        <ele>2370.6</ele>
        <time>2019-08-03T07:58:52Z</time>
      </trkpt>
      <trkpt lat="42.843936" lon="0.160334">
        <ele>2373.4</ele>
        <time>2019-08-03T07:59:12Z</time>
      </trkpt>
      <trkpt lat="42.844013" lon="0.160255">
        <ele>2375.1</ele>
        <time>2019-08-03T07:59:25Z</time>
      </trkpt>
      <trkpt lat="42.844088" lon="0.160179">
        <ele>2376.5</ele>
        <time>2019-08-03T07:59:38Z</time>
      </trkpt>
      <trkpt lat="42.844197" lon="0.160149">
        <ele>2377.8</ele>
        <time>2019-08-03T07:59:52Z</time>
      </trkpt>
      <trkpt lat="42.844294" lon="0.160170">
        <ele>2379.0</ele>
        <time>2019-08-03T08:00:04Z</time>
      </trkpt>
      <trkpt lat="42.844286" lon="0.160151">
        <ele>2380.3</ele>
        <time>2019-08-03T08:04:57Z</time>
      </trkpt>
      <trkpt lat="42.844272" lon="0.160074">
        <ele>2380.5</ele>
        <time>2019-08-03T08:05:41Z</time>
      </trkpt>
      <trkpt lat="42.844277" lon="0.159947">
        <ele>2382.0</ele>
        <time>2019-08-03T08:05:59Z</time>
      </trkpt>
      <trkpt lat="42.844328" lon="0.159826">
        <ele>2383.6</ele>
        <time>2019-08-03T08:06:15Z</time>
      </trkpt>
      <trkpt lat="42.844361" lon="0.159705">
        <ele>2386.1</ele>
        <time>2019-08-03T08:06:37Z</time>
      </trkpt>
      <trkpt lat="42.844438" lon="0.159619">
        <ele>2386.9</ele>
        <time>2019-08-03T08:06:51Z</time>
      </trkpt>
      <trkpt lat="42.844437" lon="0.159480">
        <ele>2388.0</ele>
        <time>2019-08-03T08:07:09Z</time>
      </trkpt>
      <trkpt lat="42.844362" lon="0.159386">
        <ele>2390.5</ele>
        <time>2019-08-03T08:07:31Z</time>
      </trkpt>
      <trkpt lat="42.844387" lon="0.159287">
        <ele>2392.5</ele>
        <time>2019-08-03T08:07:49Z</time>
      </trkpt>
      <trkpt lat="42.844397" lon="0.159154">
        <ele>2394.2</ele>
        <time>2019-08-03T08:08:03Z</time>
      </trkpt>
      <trkpt lat="42.844395" lon="0.159032">
        <ele>2396.8</ele>
        <time>2019-08-03T08:08:23Z</time>
      </trkpt>
      <trkpt lat="42.844413" lon="0.158903">
        <ele>2398.6</ele>
        <time>2019-08-03T08:08:37Z</time>
      </trkpt>
      <trkpt lat="42.844424" lon="0.158782">
        <ele>2399.9</ele>
        <time>2019-08-03T08:08:51Z</time>
      </trkpt>
      <trkpt lat="42.844470" lon="0.158671">
        <ele>2401.5</ele>
        <time>2019-08-03T08:09:07Z</time>
      </trkpt>
      <trkpt lat="42.844532" lon="0.158597">
        <ele>2403.0</ele>
        <time>2019-08-03T08:09:19Z</time>
      </trkpt>
      <trkpt lat="42.844574" lon="0.158493">
        <ele>2404.6</ele>
        <time>2019-08-03T08:09:36Z</time>
      </trkpt>
      <trkpt lat="42.844622" lon="0.158377">
        <ele>2407.3</ele>
        <time>2019-08-03T08:09:52Z</time>
      </trkpt>
      <trkpt lat="42.844647" lon="0.158263">
        <ele>2410.3</ele>
        <time>2019-08-03T08:10:10Z</time>
      </trkpt>
      <trkpt lat="42.844718" lon="0.158187">
        <ele>2412.9</ele>
        <time>2019-08-03T08:10:28Z</time>
      </trkpt>
      <trkpt lat="42.844783" lon="0.158098">
        <ele>2415.1</ele>
        <time>2019-08-03T08:10:45Z</time>
      </trkpt>
      <trkpt lat="42.844829" lon="0.157990">
        <ele>2417.3</ele>
        <time>2019-08-03T08:11:02Z</time>
      </trkpt>
      <trkpt lat="42.844852" lon="0.157877">
        <ele>2419.5</ele>
        <time>2019-08-03T08:11:36Z</time>
      </trkpt>
      <trkpt lat="42.844866" lon="0.157748">
        <ele>2419.0</ele>
        <time>2019-08-03T08:12:14Z</time>
      </trkpt>
      <trkpt lat="42.844868" lon="0.157607">
        <ele>2419.3</ele>
        <time>2019-08-03T08:12:28Z</time>
      </trkpt>
      <trkpt lat="42.844857" lon="0.157469">
        <ele>2419.7</ele>
        <time>2019-08-03T08:12:39Z</time>
      </trkpt>
      <trkpt lat="42.844880" lon="0.157339">
        <ele>2420.4</ele>
        <time>2019-08-03T08:12:53Z</time>
      </trkpt>
      <trkpt lat="42.844918" lon="0.157192">
        <ele>2420.9</ele>
        <time>2019-08-03T08:13:07Z</time>
      </trkpt>
      <trkpt lat="42.844959" lon="0.157059">
        <ele>2421.0</ele>
        <time>2019-08-03T08:13:23Z</time>
      </trkpt>
      <trkpt lat="42.845007" lon="0.156993">
        <ele>2421.4</ele>
        <time>2019-08-03T08:13:40Z</time>
      </trkpt>
      <trkpt lat="42.845056" lon="0.156885">
        <ele>2422.1</ele>
        <time>2019-08-03T08:13:54Z</time>
      </trkpt>
      <trkpt lat="42.845096" lon="0.156770">
        <ele>2421.0</ele>
        <time>2019-08-03T08:14:09Z</time>
      </trkpt>
      <trkpt lat="42.845140" lon="0.156650">
        <ele>2421.9</ele>
        <time>2019-08-03T08:14:23Z</time>
      </trkpt>
      <trkpt lat="42.845209" lon="0.156583">
        <ele>2423.0</ele>
        <time>2019-08-03T08:14:37Z</time>
      </trkpt>
      <trkpt lat="42.845254" lon="0.156505">
        <ele>2425.8</ele>
        <time>2019-08-03T08:15:02Z</time>
      </trkpt>
      <trkpt lat="42.845314" lon="0.156437">
        <ele>2428.6</ele>
        <time>2019-08-03T08:15:23Z</time>
      </trkpt>
      <trkpt lat="42.845374" lon="0.156358">
        <ele>2430.5</ele>
        <time>2019-08-03T08:15:45Z</time>
      </trkpt>
      <trkpt lat="42.845397" lon="0.156277">
        <ele>2432.8</ele>
        <time>2019-08-03T08:16:05Z</time>
      </trkpt>
      <trkpt lat="42.845475" lon="0.156218">
        <ele>2433.1</ele>
        <time>2019-08-03T08:16:22Z</time>
      </trkpt>
      <trkpt lat="42.845517" lon="0.156175">
        <ele>2431.1</ele>
        <time>2019-08-03T08:16:40Z</time>
      </trkpt>
      <trkpt lat="42.845518" lon="0.156061">
        <ele>2430.6</ele>
        <time>2019-08-03T08:16:56Z</time>
      </trkpt>
      <trkpt lat="42.845539" lon="0.155947">
        <ele>2430.1</ele>
        <time>2019-08-03T08:17:12Z</time>
      </trkpt>
      <trkpt lat="42.845579" lon="0.155858">
        <ele>2428.6</ele>
        <time>2019-08-03T08:18:08Z</time>
      </trkpt>
      <trkpt lat="42.845630" lon="0.155766">
        <ele>2425.6</ele>
        <time>2019-08-03T08:18:28Z</time>
      </trkpt>
      <trkpt lat="42.845656" lon="0.155642">
        <ele>2422.9</ele>
        <time>2019-08-03T08:18:43Z</time>
      </trkpt>
      <trkpt lat="42.845702" lon="0.155515">
        <ele>2421.5</ele>
        <time>2019-08-03T08:18:57Z</time>
      </trkpt>
      <trkpt lat="42.845732" lon="0.155391">
        <ele>2420.2</ele>
        <time>2019-08-03T08:19:08Z</time>
      </trkpt>
      <trkpt lat="42.845783" lon="0.155276">
        <ele>2419.8</ele>
        <time>2019-08-03T08:19:24Z</time>
      </trkpt>
      <trkpt lat="42.845817" lon="0.155148">
        <ele>2419.9</ele>
        <time>2019-08-03T08:19:36Z</time>
      </trkpt>
      <trkpt lat="42.845855" lon="0.155030">
        <ele>2420.2</ele>
        <time>2019-08-03T08:19:49Z</time>
      </trkpt>
      <trkpt lat="42.845924" lon="0.154956">
        <ele>2420.3</ele>
        <time>2019-08-03T08:21:07Z</time>
      </trkpt>
      <trkpt lat="42.845965" lon="0.154835">
        <ele>2419.9</ele>
        <time>2019-08-03T08:21:18Z</time>
      </trkpt>
      <trkpt lat="42.846000" lon="0.154722">
        <ele>2420.3</ele>
        <time>2019-08-03T08:21:31Z</time>
      </trkpt>
      <trkpt lat="42.846059" lon="0.154628">
        <ele>2422.0</ele>
        <time>2019-08-03T08:21:44Z</time>
      </trkpt>
      <trkpt lat="42.846110" lon="0.154517">
        <ele>2423.5</ele>
        <time>2019-08-03T08:21:57Z</time>
      </trkpt>
      <trkpt lat="42.846178" lon="0.154408">
        <ele>2424.8</ele>
        <time>2019-08-03T08:22:09Z</time>
      </trkpt>
      <trkpt lat="42.846275" lon="0.154382">
        <ele>2426.1</ele>
        <time>2019-08-03T08:22:22Z</time>
      </trkpt>
      <trkpt lat="42.846378" lon="0.154408">
        <ele>2427.5</ele>
        <time>2019-08-03T08:22:35Z</time>
      </trkpt>
      <trkpt lat="42.846461" lon="0.154369">
        <ele>2429.3</ele>
        <time>2019-08-03T08:22:53Z</time>
      </trkpt>
      <trkpt lat="42.846515" lon="0.154292">
        <ele>2431.3</ele>
        <time>2019-08-03T08:23:15Z</time>
      </trkpt>
      <trkpt lat="42.846594" lon="0.154233">
        <ele>2432.5</ele>
        <time>2019-08-03T08:23:31Z</time>
      </trkpt>
      <trkpt lat="42.846623" lon="0.154146">
        <ele>2434.0</ele>
        <time>2019-08-03T08:23:49Z</time>
      </trkpt>
      <trkpt lat="42.846607" lon="0.154037">
        <ele>2437.0</ele>
        <time>2019-08-03T08:24:11Z</time>
      </trkpt>
      <trkpt lat="42.846650" lon="0.153924">
        <ele>2439.3</ele>
        <time>2019-08-03T08:24:30Z</time>
      </trkpt>
      <trkpt lat="42.846677" lon="0.153811">
        <ele>2440.8</ele>
        <time>2019-08-03T08:24:48Z</time>
      </trkpt>
      <trkpt lat="42.846721" lon="0.153689">
        <ele>2443.7</ele>
        <time>2019-08-03T08:25:10Z</time>
      </trkpt>
      <trkpt lat="42.846763" lon="0.153554">
        <ele>2445.3</ele>
        <time>2019-08-03T08:25:28Z</time>
      </trkpt>
      <trkpt lat="42.846852" lon="0.153480">
        <ele>2446.2</ele>
        <time>2019-08-03T08:25:46Z</time>
      </trkpt>
      <trkpt lat="42.846934" lon="0.153421">
        <ele>2447.4</ele>
        <time>2019-08-03T08:26:00Z</time>
      </trkpt>
      <trkpt lat="42.847004" lon="0.153351">
        <ele>2448.8</ele>
        <time>2019-08-03T08:26:14Z</time>
      </trkpt>
      <trkpt lat="42.847048" lon="0.153251">
        <ele>2450.8</ele>
        <time>2019-08-03T08:26:32Z</time>
      </trkpt>
      <trkpt lat="42.847099" lon="0.153164">
        <ele>2454.8</ele>
        <time>2019-08-03T08:26:55Z</time>
      </trkpt>
      <trkpt lat="42.847204" lon="0.153172">
        <ele>2456.2</ele>
        <time>2019-08-03T08:27:10Z</time>
      </trkpt>
      <trkpt lat="42.847245" lon="0.153075">
        <ele>2459.0</ele>
        <time>2019-08-03T08:27:36Z</time>
      </trkpt>
      <trkpt lat="42.847283" lon="0.152976">
        <ele>2461.7</ele>
        <time>2019-08-03T08:27:57Z</time>
      </trkpt>
      <trkpt lat="42.847324" lon="0.152886">
        <ele>2464.7</ele>
        <time>2019-08-03T08:28:14Z</time>
      </trkpt>
      <trkpt lat="42.847386" lon="0.152810">
        <ele>2466.9</ele>
        <time>2019-08-03T08:28:31Z</time>
      </trkpt>
      <trkpt lat="42.847420" lon="0.152710">
        <ele>2466.8</ele>
        <time>2019-08-03T08:28:44Z</time>
      </trkpt>
      <trkpt lat="42.847478" lon="0.152624">
        <ele>2468.0</ele>
        <time>2019-08-03T08:29:01Z</time>
      </trkpt>
      <trkpt lat="42.847563" lon="0.152582">
        <ele>2467.8</ele>
        <time>2019-08-03T08:29:17Z</time>
      </trkpt>
      <trkpt lat="42.847605" lon="0.152563">
        <ele>2467.7</ele>
        <time>2019-08-03T08:30:32Z</time>
      </trkpt>
      <trkpt lat="42.847659" lon="0.152475">
        <ele>2468.4</ele>
        <time>2019-08-03T08:30:53Z</time>
      </trkpt>
      <trkpt lat="42.847725" lon="0.152394">
        <ele>2470.2</ele>
        <time>2019-08-03T08:31:19Z</time>
      </trkpt>
      <trkpt lat="42.847815" lon="0.152392">
        <ele>2468.6</ele>
        <time>2019-08-03T08:31:59Z</time>
      </trkpt>
      <trkpt lat="42.847876" lon="0.152290">
        <ele>2469.1</ele>
        <time>2019-08-03T08:32:44Z</time>
      </trkpt>
      <trkpt lat="42.847950" lon="0.152224">
        <ele>2471.5</ele>
        <time>2019-08-03T08:33:11Z</time>
      </trkpt>
      <trkpt lat="42.847998" lon="0.152137">
        <ele>2475.2</ele>
        <time>2019-08-03T08:33:43Z</time>
      </trkpt>
      <trkpt lat="42.848062" lon="0.152074">
        <ele>2476.1</ele>
        <time>2019-08-03T08:34:21Z</time>
      </trkpt>
      <trkpt lat="42.848130" lon="0.152009">
        <ele>2478.5</ele>
        <time>2019-08-03T08:34:54Z</time>
      </trkpt>
      <trkpt lat="42.848142" lon="0.151958">
        <ele>2479.5</ele>
        <time>2019-08-03T08:38:16Z</time>
      </trkpt>
      <trkpt lat="42.848169" lon="0.151975">
        <ele>2479.2</ele>
        <time>2019-08-03T08:39:41Z</time>
      </trkpt>
      <trkpt lat="42.848160" lon="0.152003">
        <ele>2478.0</ele>
        <time>2019-08-03T08:41:41Z</time>
      </trkpt>
      <trkpt lat="42.848245" lon="0.151919">
        <ele>2477.9</ele>
        <time>2019-08-03T08:43:28Z</time>
      </trkpt>
      <trkpt lat="42.848320" lon="0.151869">
        <ele>2476.1</ele>
        <time>2019-08-03T08:44:10Z</time>
      </trkpt>
      <trkpt lat="42.848386" lon="0.151842">
        <ele>2473.9</ele>
        <time>2019-08-03T08:44:30Z</time>
      </trkpt>
      <trkpt lat="42.848481" lon="0.151798">
        <ele>2471.6</ele>
        <time>2019-08-03T08:44:50Z</time>
      </trkpt>
      <trkpt lat="42.848564" lon="0.151733">
        <ele>2470.6</ele>
        <time>2019-08-03T08:45:03Z</time>
      </trkpt>
      <trkpt lat="42.848637" lon="0.151695">
        <ele>2469.6</ele>
        <time>2019-08-03T08:45:16Z</time>
      </trkpt>
      <trkpt lat="42.848733" lon="0.151699">
        <ele>2468.5</ele>
        <time>2019-08-03T08:45:32Z</time>
      </trkpt>
      <trkpt lat="42.848813" lon="0.151686">
        <ele>2468.3</ele>
        <time>2019-08-03T08:45:46Z</time>
      </trkpt>
      <trkpt lat="42.848900" lon="0.151724">
        <ele>2466.4</ele>
        <time>2019-08-03T08:46:03Z</time>
      </trkpt>
      <trkpt lat="42.848984" lon="0.151779">
        <ele>2465.9</ele>
        <time>2019-08-03T08:46:21Z</time>
      </trkpt>
      <trkpt lat="42.849079" lon="0.151782">
        <ele>2467.2</ele>
        <time>2019-08-03T08:46:39Z</time>
      </trkpt>
      <trkpt lat="42.849167" lon="0.151822">
        <ele>2466.9</ele>
        <time>2019-08-03T08:46:55Z</time>
      </trkpt>
      <trkpt lat="42.849249" lon="0.151858">
        <ele>2467.9</ele>
        <time>2019-08-03T08:47:09Z</time>
      </trkpt>
      <trkpt lat="42.849338" lon="0.151893">
        <ele>2469.8</ele>
        <time>2019-08-03T08:47:28Z</time>
      </trkpt>
      <trkpt lat="42.849413" lon="0.151868">
        <ele>2473.3</ele>
        <time>2019-08-03T08:47:51Z</time>
      </trkpt>
      <trkpt lat="42.849514" lon="0.151849">
        <ele>2475.8</ele>
        <time>2019-08-03T08:48:15Z</time>
      </trkpt>
      <trkpt lat="42.849589" lon="0.151823">
        <ele>2478.1</ele>
        <time>2019-08-03T08:48:34Z</time>
      </trkpt>
      <trkpt lat="42.849633" lon="0.151787">
        <ele>2481.0</ele>
        <time>2019-08-03T08:49:08Z</time>
      </trkpt>
      <trkpt lat="42.849660" lon="0.151797">
        <ele>2481.9</ele>
        <time>2019-08-03T08:49:50Z</time>
      </trkpt>
      <trkpt lat="42.849700" lon="0.151816">
        <ele>2486.7</ele>
        <time>2019-08-03T08:54:37Z</time>
      </trkpt>
      <trkpt lat="42.849748" lon="0.151852">
        <ele>2490.1</ele>
        <time>2019-08-03T08:55:57Z</time>
      </trkpt>
      <trkpt lat="42.849804" lon="0.151858">
        <ele>2494.1</ele>
        <time>2019-08-03T08:56:54Z</time>
      </trkpt>
      <trkpt lat="42.849872" lon="0.151863">
        <ele>2497.4</ele>
        <time>2019-08-03T08:58:33Z</time>
      </trkpt>
      <trkpt lat="42.849928" lon="0.151913">
        <ele>2498.8</ele>
        <time>2019-08-03T08:59:17Z</time>
      </trkpt>
      <trkpt lat="42.850006" lon="0.151965">
        <ele>2497.8</ele>
        <time>2019-08-03T08:59:48Z</time>
      </trkpt>
      <trkpt lat="42.850060" lon="0.151989">
        <ele>2499.5</ele>
        <time>2019-08-03T09:00:18Z</time>
      </trkpt>
      <trkpt lat="42.850120" lon="0.152073">
        <ele>2501.3</ele>
        <time>2019-08-03T09:01:02Z</time>
      </trkpt>
      <trkpt lat="42.850189" lon="0.152049">
        <ele>2504.9</ele>
        <time>2019-08-03T09:01:31Z</time>
      </trkpt>
      <trkpt lat="42.850185" lon="0.151975">
        <ele>2508.4</ele>
        <time>2019-08-03T09:02:13Z</time>
      </trkpt>
      <trkpt lat="42.850263" lon="0.151955">
        <ele>2511.5</ele>
        <time>2019-08-03T09:02:46Z</time>
      </trkpt>
      <trkpt lat="42.850295" lon="0.151944">
        <ele>2514.4</ele>
        <time>2019-08-03T09:03:24Z</time>
      </trkpt>
      <trkpt lat="42.850342" lon="0.151992">
        <ele>2519.5</ele>
        <time>2019-08-03T09:04:19Z</time>
      </trkpt>
      <trkpt lat="42.850364" lon="0.152000">
        <ele>2523.8</ele>
        <time>2019-08-03T09:05:35Z</time>
      </trkpt>
      <trkpt lat="42.850388" lon="0.151996">
        <ele>2530.2</ele>
        <time>2019-08-03T09:09:46Z</time>
      </trkpt>
      <trkpt lat="42.850435" lon="0.152024">
        <ele>2531.5</ele>
        <time>2019-08-03T09:10:26Z</time>
      </trkpt>
      <trkpt lat="42.850515" lon="0.152070">
        <ele>2531.9</ele>
        <time>2019-08-03T09:11:06Z</time>
      </trkpt>
      <trkpt lat="42.850607" lon="0.152083">
        <ele>2533.6</ele>
        <time>2019-08-03T09:11:35Z</time>
      </trkpt>
      <trkpt lat="42.850647" lon="0.152143">
        <ele>2534.5</ele>
        <time>2019-08-03T09:12:08Z</time>
      </trkpt>
      <trkpt lat="42.850711" lon="0.152163">
        <ele>2533.7</ele>
        <time>2019-08-03T09:12:41Z</time>
      </trkpt>
      <trkpt lat="42.850782" lon="0.152181">
        <ele>2537.6</ele>
        <time>2019-08-03T09:13:10Z</time>
      </trkpt>
      <trkpt lat="42.850848" lon="0.152221">
        <ele>2542.0</ele>
        <time>2019-08-03T09:14:30Z</time>
      </trkpt>
      <trkpt lat="42.850888" lon="0.152225">
        <ele>2540.8</ele>
        <time>2019-08-03T09:15:27Z</time>
      </trkpt>
      <trkpt lat="42.850957" lon="0.152254">
        <ele>2546.8</ele>
        <time>2019-08-03T09:17:12Z</time>
      </trkpt>
      <trkpt lat="42.851036" lon="0.152240">
        <ele>2551.6</ele>
        <time>2019-08-03T09:18:41Z</time>
      </trkpt>
      <trkpt lat="42.851077" lon="0.152303">
        <ele>2558.0</ele>
        <time>2019-08-03T09:20:21Z</time>
      </trkpt>
      <trkpt lat="42.851149" lon="0.152316">
        <ele>2558.4</ele>
        <time>2019-08-03T09:20:55Z</time>
      </trkpt>
      <trkpt lat="42.851163" lon="0.152328">
        <ele>2557.7</ele>
        <time>2019-08-03T09:22:03Z</time>
      </trkpt>
      <trkpt lat="42.851229" lon="0.152290">
        <ele>2561.6</ele>
        <time>2019-08-03T09:23:43Z</time>
      </trkpt>
      <trkpt lat="42.851253" lon="0.152195">
        <ele>2564.8</ele>
        <time>2019-08-03T09:24:24Z</time>
      </trkpt>
      <trkpt lat="42.851335" lon="0.152180">
        <ele>2567.2</ele>
        <time>2019-08-03T09:24:49Z</time>
      </trkpt>
      <trkpt lat="42.851403" lon="0.152127">
        <ele>2570.2</ele>
        <time>2019-08-03T09:25:24Z</time>
      </trkpt>
      <trkpt lat="42.851474" lon="0.152196">
        <ele>2572.5</ele>
        <time>2019-08-03T09:25:50Z</time>
      </trkpt>
      <trkpt lat="42.851564" lon="0.152236">
        <ele>2572.8</ele>
        <time>2019-08-03T09:26:24Z</time>
      </trkpt>
      <trkpt lat="42.851569" lon="0.152272">
        <ele>2574.1</ele>
        <time>2019-08-03T09:27:22Z</time>
      </trkpt>
      <trkpt lat="42.851629" lon="0.152326">
        <ele>2575.6</ele>
        <time>2019-08-03T09:41:19Z</time>
      </trkpt>
      <trkpt lat="42.851699" lon="0.152353">
        <ele>2573.5</ele>
        <time>2019-08-03T09:42:10Z</time>
      </trkpt>
      <trkpt lat="42.851759" lon="0.152386">
        <ele>2570.7</ele>
        <time>2019-08-03T09:42:55Z</time>
      </trkpt>
      <trkpt lat="42.851837" lon="0.152466">
        <ele>2564.4</ele>
        <time>2019-08-03T09:45:38Z</time>
      </trkpt>
      <trkpt lat="42.851936" lon="0.152462">
        <ele>2560.4</ele>
        <time>2019-08-03T09:47:03Z</time>
      </trkpt>
      <trkpt lat="42.851982" lon="0.152450">
        <ele>2557.9</ele>
        <time>2019-08-03T09:47:52Z</time>
      </trkpt>
      <trkpt lat="42.852080" lon="0.152433">
        <ele>2558.8</ele>
        <time>2019-08-03T09:48:12Z</time>
      </trkpt>
      <trkpt lat="42.852141" lon="0.152433">
        <ele>2560.6</ele>
        <time>2019-08-03T09:48:45Z</time>
      </trkpt>
      <trkpt lat="42.852208" lon="0.152359">
        <ele>2563.0</ele>
        <time>2019-08-03T09:49:17Z</time>
      </trkpt>
      <trkpt lat="42.852244" lon="0.152229">
        <ele>2562.5</ele>
        <time>2019-08-03T09:50:39Z</time>
      </trkpt>
      <trkpt lat="42.852313" lon="0.152195">
        <ele>2560.1</ele>
        <time>2019-08-03T09:51:04Z</time>
      </trkpt>
      <trkpt lat="42.852346" lon="0.152140">
        <ele>2558.0</ele>
        <time>2019-08-03T09:51:26Z</time>
      </trkpt>
      <trkpt lat="42.852414" lon="0.152147">
        <ele>2555.2</ele>
        <time>2019-08-03T09:51:50Z</time>
      </trkpt>
      <trkpt lat="42.852460" lon="0.152146">
        <ele>2553.6</ele>
        <time>2019-08-03T09:52:10Z</time>
      </trkpt>
      <trkpt lat="42.852524" lon="0.152186">
        <ele>2553.4</ele>
        <time>2019-08-03T09:52:29Z</time>
      </trkpt>
      <trkpt lat="42.852581" lon="0.152143">
        <ele>2553.7</ele>
        <time>2019-08-03T09:52:55Z</time>
      </trkpt>
      <trkpt lat="42.852601" lon="0.152086">
        <ele>2553.3</ele>
        <time>2019-08-03T09:54:11Z</time>
      </trkpt>
      <trkpt lat="42.852641" lon="0.151988">
        <ele>2553.5</ele>
        <time>2019-08-03T09:54:39Z</time>
      </trkpt>
      <trkpt lat="42.852695" lon="0.151937">
        <ele>2553.0</ele>
        <time>2019-08-03T09:55:09Z</time>
      </trkpt>
      <trkpt lat="42.852703" lon="0.151842">
        <ele>2552.2</ele>
        <time>2019-08-03T09:55:36Z</time>
      </trkpt>
      <trkpt lat="42.852747" lon="0.151829">
        <ele>2551.6</ele>
        <time>2019-08-03T09:56:18Z</time>
      </trkpt>
      <trkpt lat="42.852764" lon="0.151782">
        <ele>2551.3</ele>
        <time>2019-08-03T09:56:50Z</time>
      </trkpt>
      <trkpt lat="42.852850" lon="0.151784">
        <ele>2545.7</ele>
        <time>2019-08-03T09:57:27Z</time>
      </trkpt>
      <trkpt lat="42.852874" lon="0.151692">
        <ele>2543.8</ele>
        <time>2019-08-03T09:57:57Z</time>
      </trkpt>
      <trkpt lat="42.852877" lon="0.151656">
        <ele>2541.1</ele>
        <time>2019-08-03T09:58:47Z</time>
      </trkpt>
      <trkpt lat="42.852951" lon="0.151659">
        <ele>2540.0</ele>
        <time>2019-08-03T09:59:15Z</time>
      </trkpt>
      <trkpt lat="42.853003" lon="0.151687">
        <ele>2538.6</ele>
        <time>2019-08-03T09:59:38Z</time>
      </trkpt>
      <trkpt lat="42.853089" lon="0.151655">
        <ele>2534.0</ele>
        <time>2019-08-03T10:00:04Z</time>
      </trkpt>
      <trkpt lat="42.853158" lon="0.151615">
        <ele>2531.2</ele>
        <time>2019-08-03T10:00:29Z</time>
      </trkpt>
      <trkpt lat="42.853216" lon="0.151561">
        <ele>2527.0</ele>
        <time>2019-08-03T10:00:54Z</time>
      </trkpt>
      <trkpt lat="42.853226" lon="0.151453">
        <ele>2524.0</ele>
        <time>2019-08-03T10:01:14Z</time>
      </trkpt>
      <trkpt lat="42.853221" lon="0.151386">
        <ele>2521.5</ele>
        <time>2019-08-03T10:01:55Z</time>
      </trkpt>
      <trkpt lat="42.853315" lon="0.151345">
        <ele>2520.0</ele>
        <time>2019-08-03T10:02:09Z</time>
      </trkpt>
      <trkpt lat="42.853387" lon="0.151277">
        <ele>2521.5</ele>
        <time>2019-08-03T10:02:38Z</time>
      </trkpt>
      <trkpt lat="42.853446" lon="0.151195">
        <ele>2523.8</ele>
        <time>2019-08-03T10:03:03Z</time>
      </trkpt>
      <trkpt lat="42.853518" lon="0.151146">
        <ele>2525.0</ele>
        <time>2019-08-03T10:04:00Z</time>
      </trkpt>
      <trkpt lat="42.853592" lon="0.151090">
        <ele>2524.2</ele>
        <time>2019-08-03T10:04:19Z</time>
      </trkpt>
      <trkpt lat="42.853621" lon="0.151015">
        <ele>2523.3</ele>
        <time>2019-08-03T10:04:42Z</time>
      </trkpt>
      <trkpt lat="42.853677" lon="0.150957">
        <ele>2520.4</ele>
        <time>2019-08-03T10:05:20Z</time>
      </trkpt>
      <trkpt lat="42.853736" lon="0.150893">
        <ele>2520.2</ele>
        <time>2019-08-03T10:05:46Z</time>
      </trkpt>
      <trkpt lat="42.853815" lon="0.150834">
        <ele>2517.7</ele>
        <time>2019-08-03T10:06:05Z</time>
      </trkpt>
      <trkpt lat="42.853864" lon="0.150751">
        <ele>2516.6</ele>
        <time>2019-08-03T10:06:26Z</time>
      </trkpt>
      <trkpt lat="42.853915" lon="0.150704">
        <ele>2517.1</ele>
        <time>2019-08-03T10:06:42Z</time>
      </trkpt>
      <trkpt lat="42.853923" lon="0.150603">
        <ele>2514.2</ele>
        <time>2019-08-03T10:07:05Z</time>
      </trkpt>
      <trkpt lat="42.853993" lon="0.150549">
        <ele>2512.7</ele>
        <time>2019-08-03T10:07:18Z</time>
      </trkpt>
      <trkpt lat="42.854049" lon="0.150491">
        <ele>2513.4</ele>
        <time>2019-08-03T10:07:39Z</time>
      </trkpt>
      <trkpt lat="42.854102" lon="0.150401">
        <ele>2513.7</ele>
        <time>2019-08-03T10:10:38Z</time>
      </trkpt>
      <trkpt lat="42.854157" lon="0.150409">
        <ele>2513.1</ele>
        <time>2019-08-03T10:12:03Z</time>
      </trkpt>
      <trkpt lat="42.854231" lon="0.150350">
        <ele>2513.1</ele>
        <time>2019-08-03T10:14:25Z</time>
      </trkpt>
      <trkpt lat="42.854296" lon="0.150288">
        <ele>2513.9</ele>
        <time>2019-08-03T10:14:45Z</time>
      </trkpt>
      <trkpt lat="42.854362" lon="0.150214">
        <ele>2514.0</ele>
        <time>2019-08-03T10:15:03Z</time>
      </trkpt>
      <trkpt lat="42.854420" lon="0.150104">
        <ele>2516.4</ele>
        <time>2019-08-03T10:15:48Z</time>
      </trkpt>
      <trkpt lat="42.854446" lon="0.150000">
        <ele>2517.9</ele>
        <time>2019-08-03T10:16:05Z</time>
      </trkpt>
      <trkpt lat="42.854533" lon="0.149946">
        <ele>2519.7</ele>
        <time>2019-08-03T10:16:22Z</time>
      </trkpt>
      <trkpt lat="42.854579" lon="0.149853">
        <ele>2521.1</ele>
        <time>2019-08-03T10:16:42Z</time>
      </trkpt>
      <trkpt lat="42.854631" lon="0.149851">
        <ele>2520.4</ele>
        <time>2019-08-03T10:17:07Z</time>
      </trkpt>
      <trkpt lat="42.854696" lon="0.149785">
        <ele>2521.8</ele>
        <time>2019-08-03T10:17:24Z</time>
      </trkpt>
      <trkpt lat="42.854718" lon="0.149673">
        <ele>2524.5</ele>
        <time>2019-08-03T10:17:49Z</time>
      </trkpt>
      <trkpt lat="42.854758" lon="0.149569">
        <ele>2526.3</ele>
        <time>2019-08-03T10:18:04Z</time>
      </trkpt>
      <trkpt lat="42.854794" lon="0.149467">
        <ele>2527.8</ele>
        <time>2019-08-03T10:18:18Z</time>
      </trkpt>
      <trkpt lat="42.854822" lon="0.149364">
        <ele>2529.3</ele>
        <time>2019-08-03T10:18:32Z</time>
      </trkpt>
      <trkpt lat="42.854893" lon="0.149275">
        <ele>2528.8</ele>
        <time>2019-08-03T10:18:48Z</time>
      </trkpt>
      <trkpt lat="42.854935" lon="0.149161">
        <ele>2530.8</ele>
        <time>2019-08-03T10:19:11Z</time>
      </trkpt>
      <trkpt lat="42.854994" lon="0.149066">
        <ele>2534.4</ele>
        <time>2019-08-03T10:19:39Z</time>
      </trkpt>
      <trkpt lat="42.855033" lon="0.148971">
        <ele>2537.5</ele>
        <time>2019-08-03T10:20:04Z</time>
      </trkpt>
      <trkpt lat="42.855102" lon="0.148907">
        <ele>2539.9</ele>
        <time>2019-08-03T10:20:25Z</time>
      </trkpt>
      <trkpt lat="42.855136" lon="0.148807">
        <ele>2541.2</ele>
        <time>2019-08-03T10:20:46Z</time>
      </trkpt>
      <trkpt lat="42.855148" lon="0.148693">
        <ele>2543.5</ele>
        <time>2019-08-03T10:21:09Z</time>
      </trkpt>
      <trkpt lat="42.855159" lon="0.148593">
        <ele>2546.2</ele>
        <time>2019-08-03T10:21:33Z</time>
      </trkpt>
      <trkpt lat="42.855210" lon="0.148497">
        <ele>2549.7</ele>
        <time>2019-08-03T10:22:02Z</time>
      </trkpt>
      <trkpt lat="42.855250" lon="0.148405">
        <ele>2552.6</ele>
        <time>2019-08-03T10:22:24Z</time>
      </trkpt>
      <trkpt lat="42.855317" lon="0.148330">
        <ele>2556.4</ele>
        <time>2019-08-03T10:22:55Z</time>
      </trkpt>
      <trkpt lat="42.855339" lon="0.148207">
        <ele>2562.0</ele>
        <time>2019-08-03T10:23:43Z</time>
      </trkpt>
      <trkpt lat="42.855387" lon="0.148128">
        <ele>2564.9</ele>
        <time>2019-08-03T10:24:09Z</time>
      </trkpt>
      <trkpt lat="42.855406" lon="0.148016">
        <ele>2567.7</ele>
        <time>2019-08-03T10:24:35Z</time>
      </trkpt>
      <trkpt lat="42.855458" lon="0.147964">
        <ele>2570.9</ele>
        <time>2019-08-03T10:25:02Z</time>
      </trkpt>
      <trkpt lat="42.855444" lon="0.147871">
        <ele>2574.4</ele>
        <time>2019-08-03T10:25:43Z</time>
      </trkpt>
      <trkpt lat="42.855502" lon="0.147822">
        <ele>2578.4</ele>
        <time>2019-08-03T10:26:13Z</time>
      </trkpt>
      <trkpt lat="42.855549" lon="0.147758">
        <ele>2578.8</ele>
        <time>2019-08-03T10:26:31Z</time>
      </trkpt>
      <trkpt lat="42.855568" lon="0.147647">
        <ele>2581.6</ele>
        <time>2019-08-03T10:26:54Z</time>
      </trkpt>
      <trkpt lat="42.855590" lon="0.147518">
        <ele>2583.5</ele>
        <time>2019-08-03T10:27:09Z</time>
      </trkpt>
      <trkpt lat="42.855660" lon="0.147446">
        <ele>2585.4</ele>
        <time>2019-08-03T10:27:29Z</time>
      </trkpt>
      <trkpt lat="42.855723" lon="0.147369">
        <ele>2586.1</ele>
        <time>2019-08-03T10:27:44Z</time>
      </trkpt>
      <trkpt lat="42.855787" lon="0.147269">
        <ele>2587.7</ele>
        <time>2019-08-03T10:28:01Z</time>
      </trkpt>
      <trkpt lat="42.855842" lon="0.147145">
        <ele>2589.8</ele>
        <time>2019-08-03T10:28:25Z</time>
      </trkpt>
      <trkpt lat="42.855854" lon="0.147012">
        <ele>2590.6</ele>
        <time>2019-08-03T10:28:43Z</time>
      </trkpt>
      <trkpt lat="42.855896" lon="0.147035">
        <ele>2592.4</ele>
        <time>2019-08-03T10:29:30Z</time>
      </trkpt>
      <trkpt lat="42.855956" lon="0.147062">
        <ele>2596.5</ele>
        <time>2019-08-03T10:30:03Z</time>
      </trkpt>
      <trkpt lat="42.855999" lon="0.147001">
        <ele>2600.5</ele>
        <time>2019-08-03T10:30:36Z</time>
      </trkpt>
      <trkpt lat="42.856024" lon="0.146924">
        <ele>2606.0</ele>
        <time>2019-08-03T10:31:16Z</time>
      </trkpt>
      <trkpt lat="42.856091" lon="0.146964">
        <ele>2609.1</ele>
        <time>2019-08-03T10:31:56Z</time>
      </trkpt>
      <trkpt lat="42.856109" lon="0.146925">
        <ele>2617.0</ele>
        <time>2019-08-03T10:32:58Z</time>
      </trkpt>
      <trkpt lat="42.856167" lon="0.146847">
        <ele>2619.3</ele>
        <time>2019-08-03T10:33:25Z</time>
      </trkpt>
      <trkpt lat="42.856235" lon="0.146787">
        <ele>2620.0</ele>
        <time>2019-08-03T10:33:44Z</time>
      </trkpt>
      <trkpt lat="42.856227" lon="0.146701">
        <ele>2622.0</ele>
        <time>2019-08-03T10:34:07Z</time>
      </trkpt>
      <trkpt lat="42.856298" lon="0.146648">
        <ele>2626.1</ele>
        <time>2019-08-03T10:34:46Z</time>
      </trkpt>
      <trkpt lat="42.856345" lon="0.146581">
        <ele>2630.2</ele>
        <time>2019-08-03T10:35:15Z</time>
      </trkpt>
      <trkpt lat="42.856369" lon="0.146517">
        <ele>2631.7</ele>
        <time>2019-08-03T10:35:37Z</time>
      </trkpt>
      <trkpt lat="42.856444" lon="0.146534">
        <ele>2634.1</ele>
        <time>2019-08-03T10:36:12Z</time>
      </trkpt>
      <trkpt lat="42.856464" lon="0.146587">
        <ele>2637.2</ele>
        <time>2019-08-03T10:36:36Z</time>
      </trkpt>
      <trkpt lat="42.856492" lon="0.146609">
        <ele>2642.2</ele>
        <time>2019-08-03T10:37:17Z</time>
      </trkpt>
      <trkpt lat="42.856535" lon="0.146627">
        <ele>2645.8</ele>
        <time>2019-08-03T10:38:16Z</time>
      </trkpt>
      <trkpt lat="42.856585" lon="0.146645">
        <ele>2652.2</ele>
        <time>2019-08-03T10:39:14Z</time>
      </trkpt>
      <trkpt lat="42.856670" lon="0.146568">
        <ele>2662.6</ele>
        <time>2019-08-03T11:48:40Z</time>
      </trkpt>
      <trkpt lat="42.856738" lon="0.146526">
        <ele>2661.1</ele>
        <time>2019-08-03T11:49:08Z</time>
      </trkpt>
      <trkpt lat="42.856725" lon="0.146436">
        <ele>2658.4</ele>
        <time>2019-08-03T11:49:27Z</time>
      </trkpt>
      <trkpt lat="42.856767" lon="0.146312">
        <ele>2655.2</ele>
        <time>2019-08-03T11:49:48Z</time>
      </trkpt>
      <trkpt lat="42.856805" lon="0.146209">
        <ele>2651.8</ele>
        <time>2019-08-03T11:50:07Z</time>
      </trkpt>
      <trkpt lat="42.856852" lon="0.146105">
        <ele>2647.1</ele>
        <time>2019-08-03T11:50:42Z</time>
      </trkpt>
      <trkpt lat="42.856885" lon="0.146054">
        <ele>2644.7</ele>
        <time>2019-08-03T11:51:19Z</time>
      </trkpt>
      <trkpt lat="42.856855" lon="0.145949">
        <ele>2643.7</ele>
        <time>2019-08-03T11:51:34Z</time>
      </trkpt>
      <trkpt lat="42.856859" lon="0.145740">
        <ele>2644.2</ele>
        <time>2019-08-03T11:53:11Z</time>
      </trkpt>
      <trkpt lat="42.856894" lon="0.145679">
        <ele>2640.9</ele>
        <time>2019-08-03T11:53:39Z</time>
      </trkpt>
      <trkpt lat="42.856878" lon="0.145582">
        <ele>2640.8</ele>
        <time>2019-08-03T11:54:47Z</time>
      </trkpt>
      <trkpt lat="42.856873" lon="0.145452">
        <ele>2638.2</ele>
        <time>2019-08-03T11:56:30Z</time>
      </trkpt>
      <trkpt lat="42.856861" lon="0.145379">
        <ele>2637.8</ele>
        <time>2019-08-03T11:57:07Z</time>
      </trkpt>
      <trkpt lat="42.856894" lon="0.145297">
        <ele>2634.7</ele>
        <time>2019-08-03T11:57:36Z</time>
      </trkpt>
      <trkpt lat="42.856906" lon="0.145215">
        <ele>2631.5</ele>
        <time>2019-08-03T11:58:05Z</time>
      </trkpt>
      <trkpt lat="42.856879" lon="0.145128">
        <ele>2629.9</ele>
        <time>2019-08-03T11:58:34Z</time>
      </trkpt>
      <trkpt lat="42.856822" lon="0.145071">
        <ele>2625.7</ele>
        <time>2019-08-03T11:59:04Z</time>
      </trkpt>
      <trkpt lat="42.856807" lon="0.144979">
        <ele>2623.7</ele>
        <time>2019-08-03T11:59:24Z</time>
      </trkpt>
      <trkpt lat="42.856823" lon="0.144909">
        <ele>2623.5</ele>
        <time>2019-08-03T12:00:32Z</time>
      </trkpt>
      <trkpt lat="42.856873" lon="0.144813">
        <ele>2622.7</ele>
        <time>2019-08-03T12:00:43Z</time>
      </trkpt>
      <trkpt lat="42.856935" lon="0.144726">
        <ele>2622.4</ele>
        <time>2019-08-03T12:01:04Z</time>
      </trkpt>
      <trkpt lat="42.857011" lon="0.144650">
        <ele>2623.1</ele>
        <time>2019-08-03T12:01:18Z</time>
      </trkpt>
      <trkpt lat="42.857041" lon="0.144527">
        <ele>2622.6</ele>
        <time>2019-08-03T12:01:31Z</time>
      </trkpt>
      <trkpt lat="42.857064" lon="0.144432">
        <ele>2622.7</ele>
        <time>2019-08-03T12:01:47Z</time>
      </trkpt>
      <trkpt lat="42.857101" lon="0.144336">
        <ele>2622.2</ele>
        <time>2019-08-03T12:02:02Z</time>
      </trkpt>
      <trkpt lat="42.857134" lon="0.144255">
        <ele>2620.9</ele>
        <time>2019-08-03T12:02:15Z</time>
      </trkpt>
      <trkpt lat="42.857154" lon="0.144134">
        <ele>2617.2</ele>
        <time>2019-08-03T12:02:39Z</time>
      </trkpt>
      <trkpt lat="42.857125" lon="0.144061">
        <ele>2612.9</ele>
        <time>2019-08-03T12:03:12Z</time>
      </trkpt>
      <trkpt lat="42.857095" lon="0.143941">
        <ele>2610.2</ele>
        <time>2019-08-03T12:03:38Z</time>
      </trkpt>
      <trkpt lat="42.857088" lon="0.143838">
        <ele>2606.1</ele>
        <time>2019-08-03T12:04:10Z</time>
      </trkpt>
      <trkpt lat="42.857093" lon="0.143733">
        <ele>2603.1</ele>
        <time>2019-08-03T12:04:35Z</time>
      </trkpt>
      <trkpt lat="42.857085" lon="0.143665">
        <ele>2598.1</ele>
        <time>2019-08-03T12:05:03Z</time>
      </trkpt>
      <trkpt lat="42.857071" lon="0.143536">
        <ele>2593.0</ele>
        <time>2019-08-03T12:05:30Z</time>
      </trkpt>
      <trkpt lat="42.857119" lon="0.143430">
        <ele>2592.6</ele>
        <time>2019-08-03T12:06:02Z</time>
      </trkpt>
      <trkpt lat="42.857142" lon="0.143329">
        <ele>2590.7</ele>
        <time>2019-08-03T12:06:32Z</time>
      </trkpt>
      <trkpt lat="42.857162" lon="0.143225">
        <ele>2586.0</ele>
        <time>2019-08-03T12:06:59Z</time>
      </trkpt>
      <trkpt lat="42.857204" lon="0.143125">
        <ele>2581.9</ele>
        <time>2019-08-03T12:07:20Z</time>
      </trkpt>
      <trkpt lat="42.857193" lon="0.143070">
        <ele>2579.1</ele>
        <time>2019-08-03T12:07:43Z</time>
      </trkpt>
      <trkpt lat="42.857159" lon="0.142986">
        <ele>2576.3</ele>
        <time>2019-08-03T12:08:04Z</time>
      </trkpt>
      <trkpt lat="42.857183" lon="0.142866">
        <ele>2573.8</ele>
        <time>2019-08-03T12:08:27Z</time>
      </trkpt>
      <trkpt lat="42.857203" lon="0.142735">
        <ele>2571.7</ele>
        <time>2019-08-03T12:08:44Z</time>
      </trkpt>
      <trkpt lat="42.857242" lon="0.142611">
        <ele>2569.5</ele>
        <time>2019-08-03T12:09:00Z</time>
      </trkpt>
      <trkpt lat="42.857248" lon="0.142497">
        <ele>2565.9</ele>
        <time>2019-08-03T12:09:25Z</time>
      </trkpt>
      <trkpt lat="42.857233" lon="0.142389">
        <ele>2560.6</ele>
        <time>2019-08-03T12:09:53Z</time>
      </trkpt>
      <trkpt lat="42.857270" lon="0.142289">
        <ele>2557.6</ele>
        <time>2019-08-03T12:10:12Z</time>
      </trkpt>
      <trkpt lat="42.857230" lon="0.142216">
        <ele>2551.9</ele>
        <time>2019-08-03T12:10:42Z</time>
      </trkpt>
      <trkpt lat="42.857272" lon="0.142099">
        <ele>2549.1</ele>
        <time>2019-08-03T12:10:58Z</time>
      </trkpt>
      <trkpt lat="42.857316" lon="0.141988">
        <ele>2547.8</ele>
        <time>2019-08-03T12:11:13Z</time>
      </trkpt>
      <trkpt lat="42.857357" lon="0.141898">
        <ele>2547.0</ele>
        <time>2019-08-03T12:11:26Z</time>
      </trkpt>
      <trkpt lat="42.857410" lon="0.141833">
        <ele>2546.7</ele>
        <time>2019-08-03T12:11:42Z</time>
      </trkpt>
      <trkpt lat="42.857450" lon="0.141729">
        <ele>2544.3</ele>
        <time>2019-08-03T12:11:55Z</time>
      </trkpt>
      <trkpt lat="42.857501" lon="0.141644">
        <ele>2543.1</ele>
        <time>2019-08-03T12:12:09Z</time>
      </trkpt>
      <trkpt lat="42.857525" lon="0.141519">
        <ele>2540.5</ele>
        <time>2019-08-03T12:12:26Z</time>
      </trkpt>
      <trkpt lat="42.857537" lon="0.141378">
        <ele>2537.6</ele>
        <time>2019-08-03T12:12:45Z</time>
      </trkpt>
      <trkpt lat="42.857575" lon="0.141249">
        <ele>2536.5</ele>
        <time>2019-08-03T12:13:00Z</time>
      </trkpt>
      <trkpt lat="42.857592" lon="0.141129">
        <ele>2533.8</ele>
        <time>2019-08-03T12:13:18Z</time>
      </trkpt>
      <trkpt lat="42.857606" lon="0.141018">
        <ele>2531.6</ele>
        <time>2019-08-03T12:13:37Z</time>
      </trkpt>
      <trkpt lat="42.857588" lon="0.140929">
        <ele>2529.5</ele>
        <time>2019-08-03T12:13:59Z</time>
      </trkpt>
      <trkpt lat="42.857579" lon="0.140844">
        <ele>2527.6</ele>
        <time>2019-08-03T12:14:17Z</time>
      </trkpt>
      <trkpt lat="42.857574" lon="0.140755">
        <ele>2524.1</ele>
        <time>2019-08-03T12:14:39Z</time>
      </trkpt>
      <trkpt lat="42.857607" lon="0.140649">
        <ele>2523.1</ele>
        <time>2019-08-03T12:14:54Z</time>
      </trkpt>
      <trkpt lat="42.857635" lon="0.140531">
        <ele>2521.8</ele>
        <time>2019-08-03T12:15:12Z</time>
      </trkpt>
      <trkpt lat="42.857595" lon="0.140428">
        <ele>2519.2</ele>
        <time>2019-08-03T12:15:30Z</time>
      </trkpt>
      <trkpt lat="42.857542" lon="0.140370">
        <ele>2518.9</ele>
        <time>2019-08-03T12:16:06Z</time>
      </trkpt>
      <trkpt lat="42.857442" lon="0.140329">
        <ele>2518.0</ele>
        <time>2019-08-03T12:16:19Z</time>
      </trkpt>
      <trkpt lat="42.857442" lon="0.140238">
        <ele>2520.3</ele>
        <time>2019-08-03T12:19:35Z</time>
      </trkpt>
      <trkpt lat="42.857439" lon="0.140103">
        <ele>2520.6</ele>
        <time>2019-08-03T12:19:50Z</time>
      </trkpt>
      <trkpt lat="42.857399" lon="0.139986">
        <ele>2521.5</ele>
        <time>2019-08-03T12:20:03Z</time>
      </trkpt>
      <trkpt lat="42.857388" lon="0.139856">
        <ele>2523.9</ele>
        <time>2019-08-03T12:20:18Z</time>
      </trkpt>
      <trkpt lat="42.857425" lon="0.139719">
        <ele>2527.9</ele>
        <time>2019-08-03T12:20:37Z</time>
      </trkpt>
      <trkpt lat="42.857436" lon="0.139586">
        <ele>2528.2</ele>
        <time>2019-08-03T12:20:50Z</time>
      </trkpt>
      <trkpt lat="42.857442" lon="0.139470">
        <ele>2530.0</ele>
        <time>2019-08-03T12:21:04Z</time>
      </trkpt>
      <trkpt lat="42.857476" lon="0.139356">
        <ele>2531.9</ele>
        <time>2019-08-03T12:21:20Z</time>
      </trkpt>
      <trkpt lat="42.857493" lon="0.139241">
        <ele>2534.2</ele>
        <time>2019-08-03T12:21:37Z</time>
      </trkpt>
      <trkpt lat="42.857502" lon="0.139130">
        <ele>2538.0</ele>
        <time>2019-08-03T12:21:59Z</time>
      </trkpt>
      <trkpt lat="42.857540" lon="0.139034">
        <ele>2542.2</ele>
        <time>2019-08-03T12:22:28Z</time>
      </trkpt>
      <trkpt lat="42.857584" lon="0.138869">
        <ele>2548.6</ele>
        <time>2019-08-03T12:23:07Z</time>
      </trkpt>
      <trkpt lat="42.857588" lon="0.138794">
        <ele>2552.0</ele>
        <time>2019-08-03T12:23:31Z</time>
      </trkpt>
      <trkpt lat="42.857613" lon="0.138706">
        <ele>2555.5</ele>
        <time>2019-08-03T12:23:58Z</time>
      </trkpt>
      <trkpt lat="42.857646" lon="0.138604">
        <ele>2559.8</ele>
        <time>2019-08-03T12:24:25Z</time>
      </trkpt>
      <trkpt lat="42.857674" lon="0.138537">
        <ele>2562.6</ele>
        <time>2019-08-03T12:24:45Z</time>
      </trkpt>
      <trkpt lat="42.857724" lon="0.138440">
        <ele>2566.4</ele>
        <time>2019-08-03T12:25:14Z</time>
      </trkpt>
      <trkpt lat="42.857757" lon="0.138334">
        <ele>2570.2</ele>
        <time>2019-08-03T12:25:37Z</time>
      </trkpt>
      <trkpt lat="42.857817" lon="0.138226">
        <ele>2572.5</ele>
        <time>2019-08-03T12:25:58Z</time>
      </trkpt>
      <trkpt lat="42.857877" lon="0.138144">
        <ele>2574.7</ele>
        <time>2019-08-03T12:26:18Z</time>
      </trkpt>
      <trkpt lat="42.857929" lon="0.138057">
        <ele>2578.2</ele>
        <time>2019-08-03T12:26:37Z</time>
      </trkpt>
      <trkpt lat="42.857901" lon="0.137992">
        <ele>2580.8</ele>
        <time>2019-08-03T12:27:00Z</time>
      </trkpt>
      <trkpt lat="42.857898" lon="0.137906">
        <ele>2584.6</ele>
        <time>2019-08-03T12:27:26Z</time>
      </trkpt>
      <trkpt lat="42.857959" lon="0.137826">
        <ele>2587.2</ele>
        <time>2019-08-03T12:27:45Z</time>
      </trkpt>
      <trkpt lat="42.857952" lon="0.137720">
        <ele>2591.7</ele>
        <time>2019-08-03T12:28:08Z</time>
      </trkpt>
      <trkpt lat="42.857931" lon="0.137601">
        <ele>2594.5</ele>
        <time>2019-08-03T12:28:27Z</time>
      </trkpt>
      <trkpt lat="42.857911" lon="0.137556">
        <ele>2598.4</ele>
        <time>2019-08-03T12:28:55Z</time>
      </trkpt>
      <trkpt lat="42.857915" lon="0.137450">
        <ele>2602.0</ele>
        <time>2019-08-03T12:29:28Z</time>
      </trkpt>
      <trkpt lat="42.857911" lon="0.137363">
        <ele>2606.3</ele>
        <time>2019-08-03T12:29:54Z</time>
      </trkpt>
      <trkpt lat="42.857874" lon="0.137325">
        <ele>2610.6</ele>
        <time>2019-08-03T12:30:24Z</time>
      </trkpt>
      <trkpt lat="42.857776" lon="0.137323">
        <ele>2614.4</ele>
        <time>2019-08-03T12:30:49Z</time>
      </trkpt>
      <trkpt lat="42.857683" lon="0.137338">
        <ele>2616.1</ele>
        <time>2019-08-03T12:31:05Z</time>
      </trkpt>
      <trkpt lat="42.857598" lon="0.137298">
        <ele>2619.1</ele>
        <time>2019-08-03T12:31:30Z</time>
      </trkpt>
      <trkpt lat="42.857563" lon="0.137224">
        <ele>2623.4</ele>
        <time>2019-08-03T12:31:56Z</time>
      </trkpt>
      <trkpt lat="42.857576" lon="0.137153">
        <ele>2627.3</ele>
        <time>2019-08-03T12:32:24Z</time>
      </trkpt>
      <trkpt lat="42.857611" lon="0.137050">
        <ele>2631.1</ele>
        <time>2019-08-03T12:32:52Z</time>
      </trkpt>
      <trkpt lat="42.857595" lon="0.136964">
        <ele>2634.9</ele>
        <time>2019-08-03T12:33:23Z</time>
      </trkpt>
      <trkpt lat="42.857595" lon="0.136897">
        <ele>2638.8</ele>
        <time>2019-08-03T12:33:48Z</time>
      </trkpt>
      <trkpt lat="42.857651" lon="0.136818">
        <ele>2640.5</ele>
        <time>2019-08-03T12:34:05Z</time>
      </trkpt>
      <trkpt lat="42.857731" lon="0.136763">
        <ele>2642.3</ele>
        <time>2019-08-03T12:34:20Z</time>
      </trkpt>
      <trkpt lat="42.857777" lon="0.136707">
        <ele>2646.4</ele>
        <time>2019-08-03T12:34:48Z</time>
      </trkpt>
      <trkpt lat="42.857858" lon="0.136695">
        <ele>2652.0</ele>
        <time>2019-08-03T12:35:17Z</time>
      </trkpt>
      <trkpt lat="42.857852" lon="0.136597">
        <ele>2653.1</ele>
        <time>2019-08-03T12:35:35Z</time>
      </trkpt>
      <trkpt lat="42.857886" lon="0.136566">
        <ele>2652.1</ele>
        <time>2019-08-03T12:43:22Z</time>
      </trkpt>
      <trkpt lat="42.857891" lon="0.136446">
        <ele>2650.3</ele>
        <time>2019-08-03T12:43:41Z</time>
      </trkpt>
      <trkpt lat="42.857937" lon="0.136312">
        <ele>2648.4</ele>
        <time>2019-08-03T12:43:53Z</time>
      </trkpt>
      <trkpt lat="42.857982" lon="0.136194">
        <ele>2648.3</ele>
        <time>2019-08-03T12:44:06Z</time>
      </trkpt>
      <trkpt lat="42.858013" lon="0.136078">
        <ele>2648.7</ele>
        <time>2019-08-03T12:44:19Z</time>
      </trkpt>
      <trkpt lat="42.858031" lon="0.135956">
        <ele>2648.6</ele>
        <time>2019-08-03T12:44:32Z</time>
      </trkpt>
      <trkpt lat="42.858080" lon="0.135853">
        <ele>2647.6</ele>
        <time>2019-08-03T12:44:52Z</time>
      </trkpt>
      <trkpt lat="42.858103" lon="0.135747">
        <ele>2648.2</ele>
        <time>2019-08-03T12:45:11Z</time>
      </trkpt>
      <trkpt lat="42.858111" lon="0.135644">
        <ele>2648.1</ele>
        <time>2019-08-03T12:45:34Z</time>
      </trkpt>
      <trkpt lat="42.858098" lon="0.135502">
        <ele>2647.8</ele>
        <time>2019-08-03T12:45:53Z</time>
      </trkpt>
      <trkpt lat="42.858103" lon="0.135394">
        <ele>2647.4</ele>
        <time>2019-08-03T12:46:06Z</time>
      </trkpt>
      <trkpt lat="42.858102" lon="0.135278">
        <ele>2646.5</ele>
        <time>2019-08-03T12:46:27Z</time>
      </trkpt>
      <trkpt lat="42.858079" lon="0.135166">
        <ele>2645.2</ele>
        <time>2019-08-03T12:47:20Z</time>
      </trkpt>
      <trkpt lat="42.858041" lon="0.134993">
        <ele>2639.5</ele>
        <time>2019-08-03T12:48:31Z</time>
      </trkpt>
      <trkpt lat="42.858039" lon="0.134870">
        <ele>2637.8</ele>
        <time>2019-08-03T12:48:52Z</time>
      </trkpt>
      <trkpt lat="42.858013" lon="0.134758">
        <ele>2636.1</ele>
        <time>2019-08-03T12:49:13Z</time>
      </trkpt>
      <trkpt lat="42.857995" lon="0.134641">
        <ele>2634.1</ele>
        <time>2019-08-03T12:49:31Z</time>
      </trkpt>
      <trkpt lat="42.857988" lon="0.134527">
        <ele>2630.8</ele>
        <time>2019-08-03T12:49:54Z</time>
      </trkpt>
      <trkpt lat="42.857963" lon="0.134416">
        <ele>2629.1</ele>
        <time>2019-08-03T12:50:11Z</time>
      </trkpt>
      <trkpt lat="42.857986" lon="0.134313">
        <ele>2624.7</ele>
        <time>2019-08-03T12:50:40Z</time>
      </trkpt>
      <trkpt lat="42.857979" lon="0.134226">
        <ele>2620.9</ele>
        <time>2019-08-03T12:51:06Z</time>
      </trkpt>
      <trkpt lat="42.857952" lon="0.134148">
        <ele>2618.3</ele>
        <time>2019-08-03T12:52:50Z</time>
      </trkpt>
      <trkpt lat="42.857905" lon="0.134056">
        <ele>2615.5</ele>
        <time>2019-08-03T12:54:11Z</time>
      </trkpt>
      <trkpt lat="42.857851" lon="0.133990">
        <ele>2610.2</ele>
        <time>2019-08-03T12:55:09Z</time>
      </trkpt>
      <trkpt lat="42.857806" lon="0.133995">
        <ele>2607.1</ele>
        <time>2019-08-03T12:55:30Z</time>
      </trkpt>
      <trkpt lat="42.857769" lon="0.133899">
        <ele>2602.5</ele>
        <time>2019-08-03T12:55:50Z</time>
      </trkpt>
      <trkpt lat="42.857706" lon="0.133819">
        <ele>2597.4</ele>
        <time>2019-08-03T12:56:13Z</time>
      </trkpt>
      <trkpt lat="42.857663" lon="0.133723">
        <ele>2594.5</ele>
        <time>2019-08-03T12:56:39Z</time>
      </trkpt>
      <trkpt lat="42.857628" lon="0.133724">
        <ele>2592.6</ele>
        <time>2019-08-03T12:57:00Z</time>
      </trkpt>
      <trkpt lat="42.857569" lon="0.133691">
        <ele>2589.0</ele>
        <time>2019-08-03T12:57:25Z</time>
      </trkpt>
      <trkpt lat="42.857535" lon="0.133692">
        <ele>2586.1</ele>
        <time>2019-08-03T12:58:06Z</time>
      </trkpt>
      <trkpt lat="42.857479" lon="0.133640">
        <ele>2582.7</ele>
        <time>2019-08-03T12:58:29Z</time>
      </trkpt>
      <trkpt lat="42.857409" lon="0.133593">
        <ele>2577.6</ele>
        <time>2019-08-03T12:59:14Z</time>
      </trkpt>
      <trkpt lat="42.857360" lon="0.133657">
        <ele>2572.8</ele>
        <time>2019-08-03T12:59:38Z</time>
      </trkpt>
      <trkpt lat="42.857315" lon="0.133724">
        <ele>2569.6</ele>
        <time>2019-08-03T12:59:59Z</time>
      </trkpt>
      <trkpt lat="42.857250" lon="0.133678">
        <ele>2564.4</ele>
        <time>2019-08-03T13:00:21Z</time>
      </trkpt>
      <trkpt lat="42.857210" lon="0.133762">
        <ele>2559.8</ele>
        <time>2019-08-03T13:00:49Z</time>
      </trkpt>
      <trkpt lat="42.857166" lon="0.133750">
        <ele>2556.3</ele>
        <time>2019-08-03T13:01:10Z</time>
      </trkpt>
      <trkpt lat="42.857107" lon="0.133676">
        <ele>2552.3</ele>
        <time>2019-08-03T13:01:33Z</time>
      </trkpt>
      <trkpt lat="42.857069" lon="0.133747">
        <ele>2547.6</ele>
        <time>2019-08-03T13:02:02Z</time>
      </trkpt>
      <trkpt lat="42.857010" lon="0.133747">
        <ele>2543.5</ele>
        <time>2019-08-03T13:02:27Z</time>
      </trkpt>
      <trkpt lat="42.856956" lon="0.133699">
        <ele>2540.0</ele>
        <time>2019-08-03T13:02:50Z</time>
      </trkpt>
      <trkpt lat="42.856903" lon="0.133633">
        <ele>2535.5</ele>
        <time>2019-08-03T13:03:28Z</time>
      </trkpt>
      <trkpt lat="42.856849" lon="0.133592">
        <ele>2532.8</ele>
        <time>2019-08-03T13:03:49Z</time>
      </trkpt>
      <trkpt lat="42.856798" lon="0.133618">
        <ele>2529.0</ele>
        <time>2019-08-03T13:04:16Z</time>
      </trkpt>
      <trkpt lat="42.856735" lon="0.133679">
        <ele>2522.9</ele>
        <time>2019-08-03T13:06:00Z</time>
      </trkpt>
      <trkpt lat="42.856659" lon="0.133745">
        <ele>2517.4</ele>
        <time>2019-08-03T13:06:25Z</time>
      </trkpt>
      <trkpt lat="42.856592" lon="0.133754">
        <ele>2512.4</ele>
        <time>2019-08-03T13:06:47Z</time>
      </trkpt>
      <trkpt lat="42.856544" lon="0.133792">
        <ele>2508.3</ele>
        <time>2019-08-03T13:07:12Z</time>
      </trkpt>
      <trkpt lat="42.856466" lon="0.133740">
        <ele>2503.9</ele>
        <time>2019-08-03T13:07:35Z</time>
      </trkpt>
      <trkpt lat="42.856385" lon="0.133706">
        <ele>2499.2</ele>
        <time>2019-08-03T13:07:57Z</time>
      </trkpt>
      <trkpt lat="42.856301" lon="0.133709">
        <ele>2494.2</ele>
        <time>2019-08-03T13:08:23Z</time>
      </trkpt>
      <trkpt lat="42.856227" lon="0.133660">
        <ele>2490.8</ele>
        <time>2019-08-03T13:08:45Z</time>
      </trkpt>
      <trkpt lat="42.856139" lon="0.133664">
        <ele>2487.4</ele>
        <time>2019-08-03T13:09:15Z</time>
      </trkpt>
      <trkpt lat="42.856049" lon="0.133664">
        <ele>2484.5</ele>
        <time>2019-08-03T13:09:34Z</time>
      </trkpt>
      <trkpt lat="42.856008" lon="0.133750">
        <ele>2480.9</ele>
        <time>2019-08-03T13:09:55Z</time>
      </trkpt>
      <trkpt lat="42.855984" lon="0.133803">
        <ele>2478.3</ele>
        <time>2019-08-03T13:10:16Z</time>
      </trkpt>
      <trkpt lat="42.855925" lon="0.133898">
        <ele>2475.3</ele>
        <time>2019-08-03T13:10:39Z</time>
      </trkpt>
      <trkpt lat="42.855890" lon="0.134019">
        <ele>2472.3</ele>
        <time>2019-08-03T13:11:01Z</time>
      </trkpt>
      <trkpt lat="42.855827" lon="0.134064">
        <ele>2468.4</ele>
        <time>2019-08-03T13:12:15Z</time>
      </trkpt>
      <trkpt lat="42.855746" lon="0.134184">
        <ele>2464.9</ele>
        <time>2019-08-03T13:13:07Z</time>
      </trkpt>
      <trkpt lat="42.855682" lon="0.134274">
        <ele>2464.0</ele>
        <time>2019-08-03T13:13:33Z</time>
      </trkpt>
      <trkpt lat="42.855587" lon="0.134329">
        <ele>2462.1</ele>
        <time>2019-08-03T13:17:56Z</time>
      </trkpt>
      <trkpt lat="42.855528" lon="0.134385">
        <ele>2459.8</ele>
        <time>2019-08-03T13:18:25Z</time>
      </trkpt>
      <trkpt lat="42.855478" lon="0.134467">
        <ele>2457.7</ele>
        <time>2019-08-03T13:18:49Z</time>
      </trkpt>
      <trkpt lat="42.855401" lon="0.134532">
        <ele>2457.5</ele>
        <time>2019-08-03T13:19:07Z</time>
      </trkpt>
      <trkpt lat="42.855292" lon="0.134648">
        <ele>2456.6</ele>
        <time>2019-08-03T13:19:47Z</time>
      </trkpt>
      <trkpt lat="42.855200" lon="0.134683">
        <ele>2456.5</ele>
        <time>2019-08-03T13:20:09Z</time>
      </trkpt>
      <trkpt lat="42.855175" lon="0.134770">
        <ele>2457.4</ele>
        <time>2019-08-03T13:21:06Z</time>
      </trkpt>
      <trkpt lat="42.855057" lon="0.134820">
        <ele>2458.5</ele>
        <time>2019-08-03T13:21:54Z</time>
      </trkpt>
      <trkpt lat="42.854993" lon="0.134840">
        <ele>2457.5</ele>
        <time>2019-08-03T13:22:17Z</time>
      </trkpt>
      <trkpt lat="42.854919" lon="0.134792">
        <ele>2457.2</ele>
        <time>2019-08-03T13:24:08Z</time>
      </trkpt>
      <trkpt lat="42.854842" lon="0.134776">
        <ele>2458.2</ele>
        <time>2019-08-03T13:25:18Z</time>
      </trkpt>
      <trkpt lat="42.854759" lon="0.134747">
        <ele>2458.5</ele>
        <time>2019-08-03T13:25:34Z</time>
      </trkpt>
      <trkpt lat="42.854677" lon="0.134701">
        <ele>2458.1</ele>
        <time>2019-08-03T13:25:52Z</time>
      </trkpt>
      <trkpt lat="42.854624" lon="0.134640">
        <ele>2457.5</ele>
        <time>2019-08-03T13:26:08Z</time>
      </trkpt>
      <trkpt lat="42.854571" lon="0.134569">
        <ele>2455.5</ele>
        <time>2019-08-03T13:26:27Z</time>
      </trkpt>
      <trkpt lat="42.854500" lon="0.134493">
        <ele>2454.0</ele>
        <time>2019-08-03T13:26:47Z</time>
      </trkpt>
      <trkpt lat="42.854468" lon="0.134367">
        <ele>2453.0</ele>
        <time>2019-08-03T13:27:07Z</time>
      </trkpt>
      <trkpt lat="42.854427" lon="0.134296">
        <ele>2452.5</ele>
        <time>2019-08-03T13:27:40Z</time>
      </trkpt>
      <trkpt lat="42.854340" lon="0.134283">
        <ele>2452.6</ele>
        <time>2019-08-03T13:28:00Z</time>
      </trkpt>
      <trkpt lat="42.854276" lon="0.134323">
        <ele>2452.3</ele>
        <time>2019-08-03T13:28:21Z</time>
      </trkpt>
      <trkpt lat="42.854235" lon="0.134402">
        <ele>2449.6</ele>
        <time>2019-08-03T13:28:40Z</time>
      </trkpt>
      <trkpt lat="42.854173" lon="0.134480">
        <ele>2448.6</ele>
        <time>2019-08-03T13:28:54Z</time>
      </trkpt>
      <trkpt lat="42.854087" lon="0.134535">
        <ele>2449.7</ele>
        <time>2019-08-03T13:29:10Z</time>
      </trkpt>
      <trkpt lat="42.854019" lon="0.134599">
        <ele>2450.0</ele>
        <time>2019-08-03T13:29:50Z</time>
      </trkpt>
      <trkpt lat="42.853948" lon="0.134669">
        <ele>2447.8</ele>
        <time>2019-08-03T13:30:03Z</time>
      </trkpt>
      <trkpt lat="42.853875" lon="0.134742">
        <ele>2446.1</ele>
        <time>2019-08-03T13:30:17Z</time>
      </trkpt>
      <trkpt lat="42.853805" lon="0.134830">
        <ele>2444.2</ele>
        <time>2019-08-03T13:30:31Z</time>
      </trkpt>
      <trkpt lat="42.853725" lon="0.134885">
        <ele>2442.9</ele>
        <time>2019-08-03T13:30:45Z</time>
      </trkpt>
      <trkpt lat="42.853631" lon="0.134838">
        <ele>2442.2</ele>
        <time>2019-08-03T13:30:59Z</time>
      </trkpt>
      <trkpt lat="42.853535" lon="0.134761">
        <ele>2442.0</ele>
        <time>2019-08-03T13:31:15Z</time>
      </trkpt>
      <trkpt lat="42.853460" lon="0.134704">
        <ele>2440.3</ele>
        <time>2019-08-03T13:31:29Z</time>
      </trkpt>
      <trkpt lat="42.853422" lon="0.134617">
        <ele>2437.8</ele>
        <time>2019-08-03T13:31:45Z</time>
      </trkpt>
      <trkpt lat="42.853343" lon="0.134612">
        <ele>2434.3</ele>
        <time>2019-08-03T13:32:04Z</time>
      </trkpt>
      <trkpt lat="42.853287" lon="0.134516">
        <ele>2429.9</ele>
        <time>2019-08-03T13:32:25Z</time>
      </trkpt>
      <trkpt lat="42.853207" lon="0.134494">
        <ele>2426.0</ele>
        <time>2019-08-03T13:32:46Z</time>
      </trkpt>
      <trkpt lat="42.853145" lon="0.134481">
        <ele>2421.6</ele>
        <time>2019-08-03T13:33:15Z</time>
      </trkpt>
      <trkpt lat="42.853071" lon="0.134432">
        <ele>2418.3</ele>
        <time>2019-08-03T13:33:33Z</time>
      </trkpt>
      <trkpt lat="42.852992" lon="0.134443">
        <ele>2413.9</ele>
        <time>2019-08-03T13:33:59Z</time>
      </trkpt>
      <trkpt lat="42.852936" lon="0.134449">
        <ele>2410.2</ele>
        <time>2019-08-03T13:34:23Z</time>
      </trkpt>
      <trkpt lat="42.852845" lon="0.134485">
        <ele>2407.3</ele>
        <time>2019-08-03T13:34:54Z</time>
      </trkpt>
      <trkpt lat="42.852767" lon="0.134507">
        <ele>2406.0</ele>
        <time>2019-08-03T13:35:11Z</time>
      </trkpt>
      <trkpt lat="42.852706" lon="0.134435">
        <ele>2403.2</ele>
        <time>2019-08-03T13:35:41Z</time>
      </trkpt>
      <trkpt lat="42.852636" lon="0.134434">
        <ele>2401.1</ele>
        <time>2019-08-03T13:35:58Z</time>
      </trkpt>
      <trkpt lat="42.852567" lon="0.134448">
        <ele>2397.5</ele>
        <time>2019-08-03T13:36:19Z</time>
      </trkpt>
      <trkpt lat="42.852482" lon="0.134476">
        <ele>2393.0</ele>
        <time>2019-08-03T13:36:46Z</time>
      </trkpt>
      <trkpt lat="42.852410" lon="0.134499">
        <ele>2388.0</ele>
        <time>2019-08-03T13:37:15Z</time>
      </trkpt>
      <trkpt lat="42.852331" lon="0.134560">
        <ele>2384.4</ele>
        <time>2019-08-03T13:37:41Z</time>
      </trkpt>
      <trkpt lat="42.852284" lon="0.134544">
        <ele>2380.5</ele>
        <time>2019-08-03T13:38:07Z</time>
      </trkpt>
      <trkpt lat="42.852240" lon="0.134664">
        <ele>2379.5</ele>
        <time>2019-08-03T13:38:34Z</time>
      </trkpt>
      <trkpt lat="42.852199" lon="0.134751">
        <ele>2377.6</ele>
        <time>2019-08-03T13:38:49Z</time>
      </trkpt>
      <trkpt lat="42.852124" lon="0.134818">
        <ele>2375.4</ele>
        <time>2019-08-03T13:39:16Z</time>
      </trkpt>
      <trkpt lat="42.852051" lon="0.134907">
        <ele>2373.4</ele>
        <time>2019-08-03T13:39:33Z</time>
      </trkpt>
      <trkpt lat="42.851942" lon="0.135044">
        <ele>2368.9</ele>
        <time>2019-08-03T13:40:04Z</time>
      </trkpt>
      <trkpt lat="42.851864" lon="0.135141">
        <ele>2368.5</ele>
        <time>2019-08-03T13:40:18Z</time>
      </trkpt>
      <trkpt lat="42.851811" lon="0.135228">
        <ele>2368.1</ele>
        <time>2019-08-03T13:40:29Z</time>
      </trkpt>
      <trkpt lat="42.851718" lon="0.135282">
        <ele>2367.0</ele>
        <time>2019-08-03T13:40:40Z</time>
      </trkpt>
      <trkpt lat="42.851631" lon="0.135349">
        <ele>2366.3</ele>
        <time>2019-08-03T13:40:52Z</time>
      </trkpt>
      <trkpt lat="42.851545" lon="0.135364">
        <ele>2366.2</ele>
        <time>2019-08-03T13:41:02Z</time>
      </trkpt>
      <trkpt lat="42.851464" lon="0.135371">
        <ele>2365.6</ele>
        <time>2019-08-03T13:41:15Z</time>
      </trkpt>
      <trkpt lat="42.851382" lon="0.135326">
        <ele>2364.9</ele>
        <time>2019-08-03T13:41:27Z</time>
      </trkpt>
      <trkpt lat="42.851296" lon="0.135263">
        <ele>2364.1</ele>
        <time>2019-08-03T13:41:39Z</time>
      </trkpt>
      <trkpt lat="42.851222" lon="0.135174">
        <ele>2363.8</ele>
        <time>2019-08-03T13:41:53Z</time>
      </trkpt>
      <trkpt lat="42.851152" lon="0.135156">
        <ele>2362.9</ele>
        <time>2019-08-03T13:42:28Z</time>
      </trkpt>
      <trkpt lat="42.851077" lon="0.135118">
        <ele>2360.0</ele>
        <time>2019-08-03T13:42:48Z</time>
      </trkpt>
      <trkpt lat="42.850991" lon="0.135135">
        <ele>2357.6</ele>
        <time>2019-08-03T13:43:07Z</time>
      </trkpt>
      <trkpt lat="42.850923" lon="0.135098">
        <ele>2354.0</ele>
        <time>2019-08-03T13:43:31Z</time>
      </trkpt>
      <trkpt lat="42.850853" lon="0.135062">
        <ele>2351.2</ele>
        <time>2019-08-03T13:43:52Z</time>
      </trkpt>
      <trkpt lat="42.850760" lon="0.135001">
        <ele>2349.3</ele>
        <time>2019-08-03T13:44:09Z</time>
      </trkpt>
      <trkpt lat="42.850680" lon="0.134963">
        <ele>2347.4</ele>
        <time>2019-08-03T13:44:23Z</time>
      </trkpt>
      <trkpt lat="42.850589" lon="0.134946">
        <ele>2345.5</ele>
        <time>2019-08-03T13:44:37Z</time>
      </trkpt>
      <trkpt lat="42.850498" lon="0.134928">
        <ele>2344.2</ele>
        <time>2019-08-03T13:44:49Z</time>
      </trkpt>
      <trkpt lat="42.850415" lon="0.134894">
        <ele>2341.6</ele>
        <time>2019-08-03T13:45:05Z</time>
      </trkpt>
      <trkpt lat="42.850349" lon="0.134847">
        <ele>2339.7</ele>
        <time>2019-08-03T13:45:20Z</time>
      </trkpt>
      <trkpt lat="42.850277" lon="0.134910">
        <ele>2336.9</ele>
        <time>2019-08-03T13:45:37Z</time>
      </trkpt>
      <trkpt lat="42.850195" lon="0.134864">
        <ele>2334.3</ele>
        <time>2019-08-03T13:45:53Z</time>
      </trkpt>
      <trkpt lat="42.850111" lon="0.134857">
        <ele>2331.4</ele>
        <time>2019-08-03T13:46:10Z</time>
      </trkpt>
      <trkpt lat="42.850023" lon="0.134871">
        <ele>2329.3</ele>
        <time>2019-08-03T13:46:27Z</time>
      </trkpt>
      <trkpt lat="42.849924" lon="0.134844">
        <ele>2328.0</ele>
        <time>2019-08-03T13:46:41Z</time>
      </trkpt>
      <trkpt lat="42.849828" lon="0.134803">
        <ele>2327.3</ele>
        <time>2019-08-03T13:46:54Z</time>
      </trkpt>
      <trkpt lat="42.849745" lon="0.134777">
        <ele>2326.1</ele>
        <time>2019-08-03T13:47:07Z</time>
      </trkpt>
      <trkpt lat="42.849726" lon="0.134813">
        <ele>2322.1</ele>
        <time>2019-08-03T13:52:05Z</time>
      </trkpt>
      <trkpt lat="42.849699" lon="0.134914">
        <ele>2321.7</ele>
        <time>2019-08-03T13:52:48Z</time>
      </trkpt>
      <trkpt lat="42.849666" lon="0.135033">
        <ele>2321.4</ele>
        <time>2019-08-03T13:53:08Z</time>
      </trkpt>
      <trkpt lat="42.849646" lon="0.135165">
        <ele>2321.2</ele>
        <time>2019-08-03T13:53:19Z</time>
      </trkpt>
      <trkpt lat="42.849634" lon="0.135298">
        <ele>2321.6</ele>
        <time>2019-08-03T13:53:30Z</time>
      </trkpt>
      <trkpt lat="42.849607" lon="0.135424">
        <ele>2320.6</ele>
        <time>2019-08-03T13:53:40Z</time>
      </trkpt>
      <trkpt lat="42.849580" lon="0.135541">
        <ele>2319.9</ele>
        <time>2019-08-03T13:53:49Z</time>
      </trkpt>
      <trkpt lat="42.849535" lon="0.135668">
        <ele>2319.5</ele>
        <time>2019-08-03T13:53:59Z</time>
      </trkpt>
      <trkpt lat="42.849497" lon="0.135786">
        <ele>2319.1</ele>
        <time>2019-08-03T13:54:08Z</time>
      </trkpt>
      <trkpt lat="42.849433" lon="0.135879">
        <ele>2318.7</ele>
        <time>2019-08-03T13:54:18Z</time>
      </trkpt>
      <trkpt lat="42.849347" lon="0.135947">
        <ele>2318.2</ele>
        <time>2019-08-03T13:54:31Z</time>
      </trkpt>
      <trkpt lat="42.849263" lon="0.136035">
        <ele>2316.5</ele>
        <time>2019-08-03T13:54:46Z</time>
      </trkpt>
      <trkpt lat="42.849224" lon="0.136146">
        <ele>2315.8</ele>
        <time>2019-08-03T13:54:59Z</time>
      </trkpt>
      <trkpt lat="42.849184" lon="0.136260">
        <ele>2316.5</ele>
        <time>2019-08-03T13:55:13Z</time>
      </trkpt>
      <trkpt lat="42.849145" lon="0.136379">
        <ele>2316.8</ele>
        <time>2019-08-03T13:55:26Z</time>
      </trkpt>
      <trkpt lat="42.849109" lon="0.136493">
        <ele>2317.4</ele>
        <time>2019-08-03T13:55:39Z</time>
      </trkpt>
      <trkpt lat="42.849037" lon="0.136608">
        <ele>2317.9</ele>
        <time>2019-08-03T13:55:56Z</time>
      </trkpt>
      <trkpt lat="42.848962" lon="0.136708">
        <ele>2317.6</ele>
        <time>2019-08-03T13:56:07Z</time>
      </trkpt>
      <trkpt lat="42.848932" lon="0.136824">
        <ele>2317.0</ele>
        <time>2019-08-03T13:56:22Z</time>
      </trkpt>
      <trkpt lat="42.848937" lon="0.136926">
        <ele>2315.9</ele>
        <time>2019-08-03T13:57:04Z</time>
      </trkpt>
      <trkpt lat="42.848976" lon="0.137030">
        <ele>2313.8</ele>
        <time>2019-08-03T13:57:18Z</time>
      </trkpt>
      <trkpt lat="42.848962" lon="0.137116">
        <ele>2311.5</ele>
        <time>2019-08-03T13:57:36Z</time>
      </trkpt>
      <trkpt lat="42.848961" lon="0.137225">
        <ele>2308.4</ele>
        <time>2019-08-03T13:57:52Z</time>
      </trkpt>
      <trkpt lat="42.848896" lon="0.137284">
        <ele>2305.0</ele>
        <time>2019-08-03T13:58:09Z</time>
      </trkpt>
      <trkpt lat="42.848832" lon="0.137381">
        <ele>2301.9</ele>
        <time>2019-08-03T13:58:28Z</time>
      </trkpt>
      <trkpt lat="42.848764" lon="0.137469">
        <ele>2298.8</ele>
        <time>2019-08-03T13:58:45Z</time>
      </trkpt>
      <trkpt lat="42.848674" lon="0.137587">
        <ele>2295.8</ele>
        <time>2019-08-03T13:59:14Z</time>
      </trkpt>
      <trkpt lat="42.848603" lon="0.137658">
        <ele>2293.6</ele>
        <time>2019-08-03T13:59:26Z</time>
      </trkpt>
      <trkpt lat="42.848525" lon="0.137734">
        <ele>2292.1</ele>
        <time>2019-08-03T13:59:39Z</time>
      </trkpt>
      <trkpt lat="42.848500" lon="0.137852">
        <ele>2290.9</ele>
        <time>2019-08-03T13:59:52Z</time>
      </trkpt>
      <trkpt lat="42.848497" lon="0.137981">
        <ele>2289.9</ele>
        <time>2019-08-03T14:00:03Z</time>
      </trkpt>
      <trkpt lat="42.848472" lon="0.138092">
        <ele>2288.8</ele>
        <time>2019-08-03T14:00:17Z</time>
      </trkpt>
      <trkpt lat="42.848422" lon="0.138221">
        <ele>2286.7</ele>
        <time>2019-08-03T14:00:30Z</time>
      </trkpt>
      <trkpt lat="42.848392" lon="0.138356">
        <ele>2285.4</ele>
        <time>2019-08-03T14:00:41Z</time>
      </trkpt>
      <trkpt lat="42.848370" lon="0.138472">
        <ele>2284.3</ele>
        <time>2019-08-03T14:00:51Z</time>
      </trkpt>
      <trkpt lat="42.848339" lon="0.138597">
        <ele>2283.4</ele>
        <time>2019-08-03T14:01:02Z</time>
      </trkpt>
      <trkpt lat="42.848299" lon="0.138717">
        <ele>2282.7</ele>
        <time>2019-08-03T14:01:14Z</time>
      </trkpt>
      <trkpt lat="42.848302" lon="0.138821">
        <ele>2282.5</ele>
        <time>2019-08-03T14:01:26Z</time>
      </trkpt>
      <trkpt lat="42.848259" lon="0.138960">
        <ele>2280.5</ele>
        <time>2019-08-03T14:01:39Z</time>
      </trkpt>
      <trkpt lat="42.848194" lon="0.139062">
        <ele>2279.5</ele>
        <time>2019-08-03T14:01:50Z</time>
      </trkpt>
      <trkpt lat="42.848115" lon="0.139130">
        <ele>2278.6</ele>
        <time>2019-08-03T14:02:01Z</time>
      </trkpt>
      <trkpt lat="42.848021" lon="0.139178">
        <ele>2276.4</ele>
        <time>2019-08-03T14:02:16Z</time>
      </trkpt>
      <trkpt lat="42.847950" lon="0.139278">
        <ele>2273.8</ele>
        <time>2019-08-03T14:02:28Z</time>
      </trkpt>
      <trkpt lat="42.847893" lon="0.139348">
        <ele>2272.4</ele>
        <time>2019-08-03T14:02:40Z</time>
      </trkpt>
      <trkpt lat="42.847867" lon="0.139462">
        <ele>2271.5</ele>
        <time>2019-08-03T14:02:50Z</time>
      </trkpt>
      <trkpt lat="42.847846" lon="0.139594">
        <ele>2270.7</ele>
        <time>2019-08-03T14:03:03Z</time>
      </trkpt>
      <trkpt lat="42.847806" lon="0.139735">
        <ele>2269.2</ele>
        <time>2019-08-03T14:03:17Z</time>
      </trkpt>
      <trkpt lat="42.847767" lon="0.139860">
        <ele>2266.7</ele>
        <time>2019-08-03T14:03:29Z</time>
      </trkpt>
      <trkpt lat="42.847745" lon="0.139991">
        <ele>2265.3</ele>
        <time>2019-08-03T14:03:39Z</time>
      </trkpt>
      <trkpt lat="42.847712" lon="0.140110">
        <ele>2265.0</ele>
        <time>2019-08-03T14:03:49Z</time>
      </trkpt>
      <trkpt lat="42.847701" lon="0.140243">
        <ele>2265.0</ele>
        <time>2019-08-03T14:03:59Z</time>
      </trkpt>
      <trkpt lat="42.847649" lon="0.140343">
        <ele>2263.5</ele>
        <time>2019-08-03T14:04:12Z</time>
      </trkpt>
      <trkpt lat="42.847630" lon="0.140486">
        <ele>2262.4</ele>
        <time>2019-08-03T14:04:23Z</time>
      </trkpt>
      <trkpt lat="42.847568" lon="0.140584">
        <ele>2261.2</ele>
        <time>2019-08-03T14:04:35Z</time>
      </trkpt>
      <trkpt lat="42.847554" lon="0.140701">
        <ele>2258.6</ele>
        <time>2019-08-03T14:04:54Z</time>
      </trkpt>
      <trkpt lat="42.847486" lon="0.140800">
        <ele>2256.6</ele>
        <time>2019-08-03T14:05:10Z</time>
      </trkpt>
      <trkpt lat="42.847442" lon="0.140889">
        <ele>2254.2</ele>
        <time>2019-08-03T14:05:24Z</time>
      </trkpt>
      <trkpt lat="42.847373" lon="0.140973">
        <ele>2252.5</ele>
        <time>2019-08-03T14:05:34Z</time>
      </trkpt>
      <trkpt lat="42.847299" lon="0.141049">
        <ele>2250.3</ele>
        <time>2019-08-03T14:05:47Z</time>
      </trkpt>
      <trkpt lat="42.847205" lon="0.141107">
        <ele>2246.8</ele>
        <time>2019-08-03T14:06:12Z</time>
      </trkpt>
      <trkpt lat="42.847134" lon="0.141182">
        <ele>2243.8</ele>
        <time>2019-08-03T14:06:26Z</time>
      </trkpt>
      <trkpt lat="42.847050" lon="0.141123">
        <ele>2241.3</ele>
        <time>2019-08-03T14:06:40Z</time>
      </trkpt>
      <trkpt lat="42.846960" lon="0.141064">
        <ele>2238.4</ele>
        <time>2019-08-03T14:06:57Z</time>
      </trkpt>
      <trkpt lat="42.846940" lon="0.141181">
        <ele>2236.1</ele>
        <time>2019-08-03T14:07:12Z</time>
      </trkpt>
      <trkpt lat="42.846883" lon="0.141289">
        <ele>2234.2</ele>
        <time>2019-08-03T14:07:24Z</time>
      </trkpt>
      <trkpt lat="42.846879" lon="0.141406">
        <ele>2232.4</ele>
        <time>2019-08-03T14:07:41Z</time>
      </trkpt>
      <trkpt lat="42.846799" lon="0.141481">
        <ele>2231.1</ele>
        <time>2019-08-03T14:07:53Z</time>
      </trkpt>
      <trkpt lat="42.846707" lon="0.141551">
        <ele>2229.7</ele>
        <time>2019-08-03T14:08:04Z</time>
      </trkpt>
      <trkpt lat="42.846658" lon="0.141663">
        <ele>2228.3</ele>
        <time>2019-08-03T14:08:14Z</time>
      </trkpt>
      <trkpt lat="42.846620" lon="0.141782">
        <ele>2227.3</ele>
        <time>2019-08-03T14:08:24Z</time>
      </trkpt>
      <trkpt lat="42.846605" lon="0.141894">
        <ele>2225.3</ele>
        <time>2019-08-03T14:08:44Z</time>
      </trkpt>
      <trkpt lat="42.846613" lon="0.142029">
        <ele>2224.2</ele>
        <time>2019-08-03T14:08:55Z</time>
      </trkpt>
      <trkpt lat="42.846608" lon="0.142162">
        <ele>2222.4</ele>
        <time>2019-08-03T14:09:06Z</time>
      </trkpt>
      <trkpt lat="42.846572" lon="0.142289">
        <ele>2221.1</ele>
        <time>2019-08-03T14:09:17Z</time>
      </trkpt>
      <trkpt lat="42.846507" lon="0.142386">
        <ele>2219.3</ele>
        <time>2019-08-03T14:09:26Z</time>
      </trkpt>
      <trkpt lat="42.846439" lon="0.142470">
        <ele>2217.8</ele>
        <time>2019-08-03T14:09:34Z</time>
      </trkpt>
      <trkpt lat="42.846382" lon="0.142577">
        <ele>2216.6</ele>
        <time>2019-08-03T14:09:43Z</time>
      </trkpt>
      <trkpt lat="42.846313" lon="0.142658">
        <ele>2215.0</ele>
        <time>2019-08-03T14:09:52Z</time>
      </trkpt>
      <trkpt lat="42.846234" lon="0.142725">
        <ele>2213.7</ele>
        <time>2019-08-03T14:10:01Z</time>
      </trkpt>
      <trkpt lat="42.846150" lon="0.142794">
        <ele>2212.5</ele>
        <time>2019-08-03T14:10:09Z</time>
      </trkpt>
      <trkpt lat="42.846090" lon="0.142895">
        <ele>2211.4</ele>
        <time>2019-08-03T14:10:18Z</time>
      </trkpt>
      <trkpt lat="42.846047" lon="0.142997">
        <ele>2210.3</ele>
        <time>2019-08-03T14:10:27Z</time>
      </trkpt>
      <trkpt lat="42.846007" lon="0.143117">
        <ele>2209.2</ele>
        <time>2019-08-03T14:10:36Z</time>
      </trkpt>
      <trkpt lat="42.845988" lon="0.143239">
        <ele>2208.0</ele>
        <time>2019-08-03T14:10:45Z</time>
      </trkpt>
      <trkpt lat="42.845993" lon="0.143382">
        <ele>2207.1</ele>
        <time>2019-08-03T14:10:54Z</time>
      </trkpt>
      <trkpt lat="42.845997" lon="0.143518">
        <ele>2206.7</ele>
        <time>2019-08-03T14:11:03Z</time>
      </trkpt>
      <trkpt lat="42.845922" lon="0.143570">
        <ele>2201.8</ele>
        <time>2019-08-03T14:52:23Z</time>
      </trkpt>
      <trkpt lat="42.845840" lon="0.143507">
        <ele>2201.8</ele>
        <time>2019-08-03T14:52:33Z</time>
      </trkpt>
      <trkpt lat="42.845756" lon="0.143475">
        <ele>2201.0</ele>
        <time>2019-08-03T14:53:35Z</time>
      </trkpt>
      <trkpt lat="42.845667" lon="0.143439">
        <ele>2201.1</ele>
        <time>2019-08-03T14:53:44Z</time>
      </trkpt>
      <trkpt lat="42.845573" lon="0.143446">
        <ele>2201.2</ele>
        <time>2019-08-03T14:53:53Z</time>
      </trkpt>
      <trkpt lat="42.845476" lon="0.143451">
        <ele>2200.9</ele>
        <time>2019-08-03T14:54:02Z</time>
      </trkpt>
      <trkpt lat="42.845408" lon="0.143514">
        <ele>2200.8</ele>
        <time>2019-08-03T14:54:12Z</time>
      </trkpt>
      <trkpt lat="42.845334" lon="0.143593">
        <ele>2200.3</ele>
        <time>2019-08-03T14:54:21Z</time>
      </trkpt>
      <trkpt lat="42.845252" lon="0.143662">
        <ele>2200.3</ele>
        <time>2019-08-03T14:54:30Z</time>
      </trkpt>
      <trkpt lat="42.845182" lon="0.143748">
        <ele>2200.1</ele>
        <time>2019-08-03T14:54:39Z</time>
      </trkpt>
      <trkpt lat="42.845116" lon="0.143796">
        <ele>2201.1</ele>
        <time>2019-08-03T14:54:55Z</time>
      </trkpt>
      <trkpt lat="42.845020" lon="0.143854">
        <ele>2201.9</ele>
        <time>2019-08-03T14:55:05Z</time>
      </trkpt>
      <trkpt lat="42.844661" lon="0.144082">
        <ele>2201.2</ele>
        <time>2019-08-03T14:56:39Z</time>
      </trkpt>
      <trkpt lat="42.844560" lon="0.144100">
        <ele>2199.5</ele>
        <time>2019-08-03T14:57:07Z</time>
      </trkpt>
      <trkpt lat="42.844466" lon="0.144097">
        <ele>2199.7</ele>
        <time>2019-08-03T14:57:17Z</time>
      </trkpt>
      <trkpt lat="42.844376" lon="0.144113">
        <ele>2199.9</ele>
        <time>2019-08-03T14:57:29Z</time>
      </trkpt>
      <trkpt lat="42.844282" lon="0.144093">
        <ele>2200.1</ele>
        <time>2019-08-03T14:57:40Z</time>
      </trkpt>
      <trkpt lat="42.844200" lon="0.144062">
        <ele>2200.1</ele>
        <time>2019-08-03T14:57:48Z</time>
      </trkpt>
      <trkpt lat="42.844143" lon="0.143967">
        <ele>2199.7</ele>
        <time>2019-08-03T14:58:00Z</time>
      </trkpt>
      <trkpt lat="42.844075" lon="0.143892">
        <ele>2199.1</ele>
        <time>2019-08-03T14:58:15Z</time>
      </trkpt>
      <trkpt lat="42.844000" lon="0.143822">
        <ele>2198.6</ele>
        <time>2019-08-03T14:58:26Z</time>
      </trkpt>
      <trkpt lat="42.843904" lon="0.143824">
        <ele>2198.2</ele>
        <time>2019-08-03T14:58:36Z</time>
      </trkpt>
      <trkpt lat="42.843837" lon="0.143790">
        <ele>2196.7</ele>
        <time>2019-08-03T14:58:49Z</time>
      </trkpt>
      <trkpt lat="42.843741" lon="0.143848">
        <ele>2195.9</ele>
        <time>2019-08-03T14:59:01Z</time>
      </trkpt>
      <trkpt lat="42.843654" lon="0.143890">
        <ele>2194.4</ele>
        <time>2019-08-03T14:59:23Z</time>
      </trkpt>
      <trkpt lat="42.843562" lon="0.143885">
        <ele>2193.6</ele>
        <time>2019-08-03T14:59:35Z</time>
      </trkpt>
      <trkpt lat="42.843463" lon="0.143885">
        <ele>2192.4</ele>
        <time>2019-08-03T14:59:44Z</time>
      </trkpt>
      <trkpt lat="42.843373" lon="0.143922">
        <ele>2191.4</ele>
        <time>2019-08-03T14:59:53Z</time>
      </trkpt>
      <trkpt lat="42.843278" lon="0.143988">
        <ele>2190.6</ele>
        <time>2019-08-03T15:00:03Z</time>
      </trkpt>
      <trkpt lat="42.843180" lon="0.144078">
        <ele>2189.9</ele>
        <time>2019-08-03T15:00:13Z</time>
      </trkpt>
      <trkpt lat="42.843092" lon="0.144125">
        <ele>2188.4</ele>
        <time>2019-08-03T15:00:23Z</time>
      </trkpt>
      <trkpt lat="42.843013" lon="0.144203">
        <ele>2187.9</ele>
        <time>2019-08-03T15:00:33Z</time>
      </trkpt>
      <trkpt lat="42.842913" lon="0.144233">
        <ele>2187.6</ele>
        <time>2019-08-03T15:00:43Z</time>
      </trkpt>
      <trkpt lat="42.842818" lon="0.144328">
        <ele>2187.0</ele>
        <time>2019-08-03T15:00:52Z</time>
      </trkpt>
      <trkpt lat="42.842738" lon="0.144395">
        <ele>2185.9</ele>
        <time>2019-08-03T15:01:01Z</time>
      </trkpt>
      <trkpt lat="42.842631" lon="0.144411">
        <ele>2185.3</ele>
        <time>2019-08-03T15:01:11Z</time>
      </trkpt>
      <trkpt lat="42.842536" lon="0.144432">
        <ele>2184.7</ele>
        <time>2019-08-03T15:01:19Z</time>
      </trkpt>
      <trkpt lat="42.842443" lon="0.144457">
        <ele>2184.3</ele>
        <time>2019-08-03T15:01:28Z</time>
      </trkpt>
      <trkpt lat="42.842347" lon="0.144520">
        <ele>2184.4</ele>
        <time>2019-08-03T15:01:37Z</time>
      </trkpt>
      <trkpt lat="42.842257" lon="0.144543">
        <ele>2184.1</ele>
        <time>2019-08-03T15:01:46Z</time>
      </trkpt>
      <trkpt lat="42.842177" lon="0.144604">
        <ele>2183.7</ele>
        <time>2019-08-03T15:01:55Z</time>
      </trkpt>
      <trkpt lat="42.842084" lon="0.144645">
        <ele>2182.9</ele>
        <time>2019-08-03T15:02:05Z</time>
      </trkpt>
      <trkpt lat="42.841983" lon="0.144676">
        <ele>2182.1</ele>
        <time>2019-08-03T15:02:14Z</time>
      </trkpt>
      <trkpt lat="42.841868" lon="0.144645">
        <ele>2181.0</ele>
        <time>2019-08-03T15:02:24Z</time>
      </trkpt>
      <trkpt lat="42.841780" lon="0.144609">
        <ele>2179.6</ele>
        <time>2019-08-03T15:02:33Z</time>
      </trkpt>
      <trkpt lat="42.841691" lon="0.144594">
        <ele>2178.2</ele>
        <time>2019-08-03T15:02:41Z</time>
      </trkpt>
      <trkpt lat="42.841596" lon="0.144535">
        <ele>2177.3</ele>
        <time>2019-08-03T15:02:50Z</time>
      </trkpt>
      <trkpt lat="42.841495" lon="0.144455">
        <ele>2177.1</ele>
        <time>2019-08-03T15:02:59Z</time>
      </trkpt>
      <trkpt lat="42.841425" lon="0.144368">
        <ele>2176.7</ele>
        <time>2019-08-03T15:03:09Z</time>
      </trkpt>
      <trkpt lat="42.841357" lon="0.144279">
        <ele>2176.2</ele>
        <time>2019-08-03T15:03:18Z</time>
      </trkpt>
      <trkpt lat="42.841265" lon="0.144246">
        <ele>2175.3</ele>
        <time>2019-08-03T15:03:28Z</time>
      </trkpt>
      <trkpt lat="42.841193" lon="0.144163">
        <ele>2174.7</ele>
        <time>2019-08-03T15:03:37Z</time>
      </trkpt>
      <trkpt lat="42.841121" lon="0.144064">
        <ele>2173.6</ele>
        <time>2019-08-03T15:03:46Z</time>
      </trkpt>
      <trkpt lat="42.841033" lon="0.143988">
        <ele>2171.9</ele>
        <time>2019-08-03T15:03:56Z</time>
      </trkpt>
      <trkpt lat="42.840965" lon="0.143895">
        <ele>2170.6</ele>
        <time>2019-08-03T15:04:06Z</time>
      </trkpt>
      <trkpt lat="42.840885" lon="0.143820">
        <ele>2169.3</ele>
        <time>2019-08-03T15:04:15Z</time>
      </trkpt>
      <trkpt lat="42.840794" lon="0.143772">
        <ele>2168.5</ele>
        <time>2019-08-03T15:04:24Z</time>
      </trkpt>
      <trkpt lat="42.840715" lon="0.143732">
        <ele>2168.0</ele>
        <time>2019-08-03T15:04:34Z</time>
      </trkpt>
      <trkpt lat="42.840617" lon="0.143705">
        <ele>2167.6</ele>
        <time>2019-08-03T15:04:43Z</time>
      </trkpt>
      <trkpt lat="42.840593" lon="0.143801">
        <ele>2166.8</ele>
        <time>2019-08-03T15:04:53Z</time>
      </trkpt>
      <trkpt lat="42.840568" lon="0.143917">
        <ele>2166.2</ele>
        <time>2019-08-03T15:05:02Z</time>
      </trkpt>
      <trkpt lat="42.840493" lon="0.144004">
        <ele>2166.1</ele>
        <time>2019-08-03T15:05:12Z</time>
      </trkpt>
      <trkpt lat="42.840424" lon="0.144090">
        <ele>2166.3</ele>
        <time>2019-08-03T15:05:23Z</time>
      </trkpt>
      <trkpt lat="42.840378" lon="0.144205">
        <ele>2166.9</ele>
        <time>2019-08-03T15:05:32Z</time>
      </trkpt>
      <trkpt lat="42.840311" lon="0.144313">
        <ele>2167.5</ele>
        <time>2019-08-03T15:05:41Z</time>
      </trkpt>
      <trkpt lat="42.840254" lon="0.144395">
        <ele>2167.7</ele>
        <time>2019-08-03T15:06:41Z</time>
      </trkpt>
    </trkseg>
  </trk>
</gpx>

